Time,TemperatureF,DewpointF,PressureIn,WindDirection,WindDirectionDegrees,WindSpeedMPH,WindSpeedGustMPH,Humidity,HourlyPrecipIn,Conditions,Clouds,dailyrainin,SoftwareType,DateUTC
2013-06-10 00:03:00,61.0,58.7,30.03,NW,315,8.2,10.4,92,0.00,RA,,0.00,WeatherDisplay:10.37,2013-06-10 05:03:00,
2013-06-10 00:04:00,60.0,58.0,30.03,NNW,337,8.1,10.4,93,0.00,RA,,0.00,WeatherDisplay:10.37,2013-06-10 05:04:00,
2013-06-10 00:05:00,60.0,58.0,30.03,NNW,337,8.7,11.5,93,0.00,RA,,0.00,WeatherDisplay:10.37,2013-06-10 05:05:00,
2013-06-10 00:09:00,60.0,57.7,30.03,WNW,292,7.5,10.0,92,0.00,RA,,0.00,WeatherDisplay:10.37,2013-06-10 05:09:00,
2013-06-10 00:10:00,60.0,57.7,30.03,NNW,337,12.4,18.4,92,0.00,OVC,,0.00,WeatherDisplay:10.37,2013-06-10 05:10:00,
2013-06-10 00:14:00,60.0,57.7,30.03,WNW,292,8.6,11.0,92,0.00,OVC,,0.00,WeatherDisplay:10.37,2013-06-10 05:14:00,
2013-06-10 00:15:00,60.0,57.7,30.03,NW,315,12.0,17.3,92,0.00,OVC,,0.00,WeatherDisplay:10.37,2013-06-10 05:15:00,
2013-06-10 00:19:00,60.0,57.7,30.03,WNW,292,7.8,11.5,92,0.00,OVC,,0.00,WeatherDisplay:10.37,2013-06-10 05:19:00,
2013-06-10 00:20:00,60.0,57.7,30.03,NNW,337,8.0,11.5,92,0.00,OVC,,0.00,WeatherDisplay:10.37,2013-06-10 05:20:00,
2013-06-10 00:21:00,60.0,57.7,30.03,NNW,337,9.8,14.0,92,0.00,OVC,,0.00,WeatherDisplay:10.37,2013-06-10 05:21:00,
2013-06-10 00:24:00,60.0,57.7,30.03,WNW,292,7.6,9.2,92,0.00,OVC,,0.00,WeatherDisplay:10.37,2013-06-10 05:24:00,
2013-06-10 00:25:00,60.0,57.7,30.03,NW,315,7.8,10.4,92,0.00,OVC,,0.00,WeatherDisplay:10.37,2013-06-10 05:25:00,
2013-06-10 00:27:00,60.0,57.7,30.03,NW,315,8.6,11.5,92,0.00,OVC,,0.00,WeatherDisplay:10.37,2013-06-10 05:27:00,
2013-06-10 00:29:00,60.0,58.0,30.03,NNW,337,7.1,11.5,93,0.00,OVC,,0.00,WeatherDisplay:10.37,2013-06-10 05:29:00,
2013-06-10 00:30:00,60.0,58.0,30.03,WNW,292,8.2,11.5,93,0.00,OVC,,0.00,WeatherDisplay:10.37,2013-06-10 05:30:00,
2013-06-10 00:32:00,60.0,58.0,30.03,NW,315,8.0,10.4,93,0.00,OVC,,0.00,WeatherDisplay:10.37,2013-06-10 05:32:00,
2013-06-10 00:34:00,60.0,58.0,30.04,WNW,292,8.3,10.4,93,0.00,OVC,,0.00,WeatherDisplay:10.37,2013-06-10 05:34:00,
2013-06-10 00:35:00,60.0,58.0,30.04,NNW,337,7.6,10.4,93,0.00,OVC,,0.00,WeatherDisplay:10.37,2013-06-10 05:35:00,
2013-06-10 00:36:00,60.0,58.3,30.04,NW,315,7.2,9.2,94,0.00,OVC,,0.00,WeatherDisplay:10.37,2013-06-10 05:36:00,
2013-06-10 00:37:00,60.0,58.0,30.04,NW,315,8.1,11.5,93,0.00,OVC,,0.00,WeatherDisplay:10.37,2013-06-10 05:37:00,
2013-06-10 00:39:00,60.0,58.3,30.04,NW,315,6.1,6.9,94,0.00,OVC,,0.00,WeatherDisplay:10.37,2013-06-10 05:39:00,
2013-06-10 00:40:00,60.0,58.3,30.04,NW,315,5.4,6.9,94,0.00,OVC,,0.00,WeatherDisplay:10.37,2013-06-10 05:40:00,
2013-06-10 00:41:00,60.0,58.3,30.04,NW,315,5.4,6.9,94,0.00,OVC,,0.00,WeatherDisplay:10.37,2013-06-10 05:41:00,
2013-06-10 00:42:00,60.0,58.3,30.04,WNW,292,5.4,6.9,94,0.00,OVC,,0.00,WeatherDisplay:10.37,2013-06-10 05:42:00,
2013-06-10 00:45:00,60.0,58.3,30.04,NW,315,5.0,6.9,94,0.00,OVC,,0.00,WeatherDisplay:10.37,2013-06-10 05:45:00,
2013-06-10 00:46:00,59.0,57.3,30.04,NW,315,4.1,4.6,94,0.00,OVC,,0.00,WeatherDisplay:10.37,2013-06-10 05:46:00,
2013-06-10 00:47:00,59.0,57.6,30.04,NW,315,5.6,6.9,95,0.00,OVC,,0.00,WeatherDisplay:10.37,2013-06-10 05:47:00,
2013-06-10 00:50:00,59.0,57.6,30.04,WNW,292,5.6,6.9,95,0.00,OVC,,0.00,WeatherDisplay:10.37,2013-06-10 05:50:00,
2013-06-10 00:51:00,59.0,57.6,30.04,WNW,292,6.1,7.0,95,0.00,OVC,,0.00,WeatherDisplay:10.37,2013-06-10 05:51:00,
2013-06-10 00:52:00,59.0,57.6,30.04,WNW,292,6.1,7.0,95,0.00,OVC,,0.00,WeatherDisplay:10.37,2013-06-10 05:52:00,
2013-06-10 00:56:00,59.0,57.9,30.04,WNW,292,6.5,6.9,96,0.00,OVC,,0.00,WeatherDisplay:10.37,2013-06-10 05:56:00,
2013-06-10 00:57:00,59.0,58.2,30.04,WNW,292,5.3,6.9,97,0.00,OVC,,0.00,WeatherDisplay:10.37,2013-06-10 05:57:00,
2013-06-10 00:58:00,59.0,58.2,30.04,WNW,292,5.1,6.9,97,0.00,OVC,,0.00,WeatherDisplay:10.37,2013-06-10 05:58:00,
2013-06-10 01:01:00,58.0,57.2,30.04,WNW,292,6.7,8.1,97,0.00,OVC,,0.00,WeatherDisplay:10.37,2013-06-10 06:01:00,
2013-06-10 01:02:00,58.0,57.2,30.04,WNW,292,6.7,8.1,97,0.00,OVC,,0.00,WeatherDisplay:10.37,2013-06-10 06:02:00,
2013-06-10 01:03:00,59.0,58.4,30.04,WNW,292,6.0,6.9,98,0.00,OVC,,0.00,WeatherDisplay:10.37,2013-06-10 06:03:00,
2013-06-10 01:06:00,58.0,57.4,30.04,NW,315,4.8,6.9,98,0.00,OVC,,0.00,WeatherDisplay:10.37,2013-06-10 06:06:00,
2013-06-10 01:07:00,58.0,57.4,30.04,NW,315,5.5,6.0,98,0.00,OVC,,0.00,WeatherDisplay:10.37,2013-06-10 06:07:00,
2013-06-10 01:08:00,58.0,57.4,30.04,NW,315,6.7,8.1,98,0.00,OVC,,0.00,WeatherDisplay:10.37,2013-06-10 06:08:00,
2013-06-10 01:12:00,58.0,57.4,30.04,WNW,292,5.9,8.1,98,0.00,OVC,,0.00,WeatherDisplay:10.37,2013-06-10 06:12:00,
2013-06-10 01:13:00,59.0,58.4,30.03,WNW,292,6.7,9.2,98,0.00,OVC,,0.00,WeatherDisplay:10.37,2013-06-10 06:13:00,
2013-06-10 01:17:00,59.0,58.7,30.03,WNW,292,9.2,11.5,99,0.00,OVC,,0.00,WeatherDisplay:10.37,2013-06-10 06:17:00,
2013-06-10 01:19:00,59.0,58.4,30.03,WNW,292,7.6,10.4,98,0.00,OVC,,0.00,WeatherDisplay:10.37,2013-06-10 06:19:00,
2013-06-10 01:22:00,59.0,58.2,30.03,WNW,292,7.8,9.2,97,0.00,OVC,,0.00,WeatherDisplay:10.37,2013-06-10 06:22:00,
2013-06-10 01:23:00,59.0,58.2,30.03,WNW,292,7.6,10.4,97,0.00,OVC,,0.00,WeatherDisplay:10.37,2013-06-10 06:23:00,
2013-06-10 01:24:00,59.0,58.4,30.03,WNW,292,7.7,10.4,98,0.00,OVC,,0.00,WeatherDisplay:10.37,2013-06-10 06:24:00,
2013-06-10 01:27:00,59.0,58.4,30.03,NW,315,5.3,8.1,98,0.00,OVC,,0.00,WeatherDisplay:10.37,2013-06-10 06:27:00,
2013-06-10 01:28:00,59.0,58.4,30.03,WNW,292,5.3,8.1,98,0.00,OVC,,0.00,WeatherDisplay:10.37,2013-06-10 06:28:00,
2013-06-10 01:29:00,59.0,58.4,30.03,WNW,292,7.2,10.4,98,0.00,OVC,,0.00,WeatherDisplay:10.37,2013-06-10 06:29:00,
2013-06-10 01:33:00,59.0,58.4,30.04,WNW,292,4.6,5.8,98,0.00,OVC,,0.00,WeatherDisplay:10.37,2013-06-10 06:33:00,
2013-06-10 01:34:00,58.0,57.2,30.04,NW,315,3.7,3.7,97,0.00,OVC,,0.00,WeatherDisplay:10.37,2013-06-10 06:34:00,
2013-06-10 01:35:00,58.0,57.2,30.04,NW,315,3.5,4.6,97,0.00,OVC,,0.00,WeatherDisplay:10.37,2013-06-10 06:35:00,
2013-06-10 01:38:00,58.0,57.4,30.04,East,90,0.2,3.5,98,0.00,OVC,,0.00,WeatherDisplay:10.37,2013-06-10 06:38:00,
2013-06-10 01:40:00,58.0,57.4,30.04,East,90,0.0,1.2,98,0.00,OVC,,0.00,WeatherDisplay:10.37,2013-06-10 06:40:00,
2013-06-10 01:43:00,58.0,57.4,30.05,WSW,247,2.4,4.6,98,0.00,OVC,,0.00,WeatherDisplay:10.37,2013-06-10 06:43:00,
2013-06-10 01:44:00,58.0,57.4,30.05,WSW,247,1.2,2.3,98,0.00,OVC,,0.00,WeatherDisplay:10.37,2013-06-10 06:44:00,
2013-06-10 01:45:00,58.0,57.4,30.05,WSW,247,0.5,3.5,98,0.00,OVC,,0.00,WeatherDisplay:10.37,2013-06-10 06:45:00,
2013-06-10 01:48:00,57.0,56.4,30.05,WSW,247,0.0,0.0,98,0.00,OVC,,0.00,WeatherDisplay:10.37,2013-06-10 06:48:00,
2013-06-10 01:49:00,57.0,56.4,30.05,WSW,247,0.0,0.0,98,0.00,OVC,,0.00,WeatherDisplay:10.37,2013-06-10 06:49:00,
2013-06-10 01:50:00,57.0,56.4,30.05,WSW,247,0.0,0.0,98,0.00,OVC,,0.00,WeatherDisplay:10.37,2013-06-10 06:50:00,
2013-06-10 01:53:00,57.0,56.4,30.06,WSW,247,0.2,2.0,98,0.00,OVC,,0.00,WeatherDisplay:10.37,2013-06-10 06:53:00,
2013-06-10 01:54:00,57.0,56.7,30.06,WSW,247,0.0,3.5,99,0.00,OVC,,0.00,WeatherDisplay:10.37,2013-06-10 06:54:00,
2013-06-10 01:55:00,57.0,56.7,30.06,WSW,247,0.0,0.0,99,0.00,OVC,,0.00,WeatherDisplay:10.37,2013-06-10 06:55:00,
2013-06-10 01:56:00,57.0,56.7,30.06,WSW,247,0.2,2.0,99,0.00,OVC,,0.00,WeatherDisplay:10.37,2013-06-10 06:56:00,
2013-06-10 01:58:00,57.0,56.7,30.06,WNW,292,5.7,7.0,99,0.00,OVC,,0.00,WeatherDisplay:10.37,2013-06-10 06:58:00,
2013-06-10 01:59:00,57.0,57.0,30.06,WNW,292,5.3,8.1,100,0.00,OVC,,0.00,WeatherDisplay:10.37,2013-06-10 06:59:00,
2013-06-10 02:00:00,57.0,57.0,30.06,WNW,292,3.7,5.8,100,0.00,OVC,,0.00,WeatherDisplay:10.37,2013-06-10 07:00:00,
2013-06-10 02:01:00,57.0,57.0,30.06,WNW,292,4.4,6.0,100,0.00,OVC,,0.00,WeatherDisplay:10.37,2013-06-10 07:01:00,
2013-06-10 02:02:00,57.0,57.0,30.06,WNW,292,5.5,5.8,100,0.00,OVC,,0.00,WeatherDisplay:10.37,2013-06-10 07:02:00,
2013-06-10 02:03:00,57.0,56.7,30.05,WNW,292,3.2,5.8,99,0.00,OVC,,0.00,WeatherDisplay:10.37,2013-06-10 07:03:00,
2013-06-10 02:04:00,57.0,57.0,30.05,WNW,292,2.2,5.8,100,0.00,OVC,,0.00,WeatherDisplay:10.37,2013-06-10 07:04:00,
2013-06-10 02:05:00,57.0,57.0,30.05,WNW,292,2.2,5.8,100,0.00,OVC,,0.00,WeatherDisplay:10.37,2013-06-10 07:05:00,
2013-06-10 02:07:00,57.0,57.0,30.05,WNW,292,1.7,3.5,100,0.00,OVC,,0.00,WeatherDisplay:10.37,2013-06-10 07:07:00,
2013-06-10 02:09:00,57.0,57.0,30.05,NNW,337,3.0,3.5,100,0.00,OVC,,0.00,WeatherDisplay:10.37,2013-06-10 07:09:00,
2013-06-10 02:10:00,57.0,57.0,30.05,NNW,337,0.1,3.5,100,0.00,OVC,,0.00,WeatherDisplay:10.37,2013-06-10 07:10:00,
2013-06-10 02:12:00,57.0,57.0,30.05,NNW,337,0.0,0.0,100,0.00,OVC,,0.00,WeatherDisplay:10.37,2013-06-10 07:12:00,
2013-06-10 02:14:00,57.0,57.0,30.06,NNW,337,0.0,0.0,100,0.00,OVC,,0.00,WeatherDisplay:10.37,2013-06-10 07:14:00,
2013-06-10 02:15:00,57.0,57.0,30.06,NW,315,0.2,1.2,100,0.00,OVC,,0.00,WeatherDisplay:10.37,2013-06-10 07:15:00,
2013-06-10 02:17:00,57.0,57.0,30.06,WNW,292,2.4,4.6,100,0.00,OVC,,0.00,WeatherDisplay:10.37,2013-06-10 07:17:00,
2013-06-10 02:18:00,57.0,57.0,30.06,WNW,292,1.0,3.5,100,0.00,OVC,,0.00,WeatherDisplay:10.37,2013-06-10 07:18:00,
2013-06-10 02:20:00,57.0,57.0,30.06,West,270,1.4,4.0,100,0.00,OVC,,0.00,WeatherDisplay:10.37,2013-06-10 07:20:00,
2013-06-10 02:21:00,57.0,57.0,30.06,West,270,0.8,4.6,100,0.00,OVC,,0.00,WeatherDisplay:10.37,2013-06-10 07:21:00,
2013-06-10 02:22:00,57.0,57.0,30.06,West,270,1.3,4.6,100,0.00,OVC,,0.00,WeatherDisplay:10.37,2013-06-10 07:22:00,
2013-06-10 02:23:00,57.0,57.0,30.05,West,270,1.5,4.6,100,0.00,OVC,,0.00,WeatherDisplay:10.37,2013-06-10 07:23:00,
2013-06-10 02:25:00,57.0,57.0,30.05,WNW,292,0.5,4.6,100,0.00,OVC,,0.00,WeatherDisplay:10.37,2013-06-10 07:25:00,
2013-06-10 02:27:00,57.0,57.0,30.05,WNW,292,0.1,1.2,100,0.00,OVC,,0.00,WeatherDisplay:10.37,2013-06-10 07:27:00,
2013-06-10 02:28:00,57.0,57.0,30.05,WNW,292,0.0,0.0,100,0.00,OVC,,0.00,WeatherDisplay:10.37,2013-06-10 07:28:00,
2013-06-10 02:30:00,57.0,57.0,30.05,WNW,292,0.0,1.2,100,0.00,OVC,,0.00,WeatherDisplay:10.37,2013-06-10 07:30:00,
2013-06-10 02:32:00,56.0,56.0,30.05,WNW,292,0.9,1.2,100,0.00,OVC,,0.00,WeatherDisplay:10.37,2013-06-10 07:32:00,
2013-06-10 02:33:00,57.0,57.0,30.05,WNW,292,3.2,4.0,100,0.00,OVC,,0.00,WeatherDisplay:10.37,2013-06-10 07:33:00,
2013-06-10 02:35:00,56.0,56.0,30.05,WNW,292,6.1,8.0,100,0.00,OVC,,0.00,WeatherDisplay:10.37,2013-06-10 07:35:00,
2013-06-10 02:37:00,56.0,56.0,30.05,WNW,292,6.5,8.0,100,0.00,OVC,,0.00,WeatherDisplay:10.37,2013-06-10 07:37:00,
2013-06-10 02:38:00,56.0,56.0,30.05,WNW,292,6.2,8.1,100,0.00,OVC,,0.00,WeatherDisplay:10.37,2013-06-10 07:38:00,
2013-06-10 02:40:00,56.0,56.0,30.05,WNW,292,4.9,5.8,100,0.00,OVC,,0.00,WeatherDisplay:10.37,2013-06-10 07:40:00,
2013-06-10 02:41:00,56.0,56.0,30.05,WNW,292,4.5,5.8,100,0.00,OVC,,0.00,WeatherDisplay:10.37,2013-06-10 07:41:00,
2013-06-10 02:42:00,57.0,57.0,30.05,WNW,292,4.7,6.9,100,0.00,OVC,,0.00,WeatherDisplay:10.37,2013-06-10 07:42:00,
2013-06-10 02:44:00,57.0,57.0,30.05,NNW,337,1.6,3.5,100,0.00,OVC,,0.00,WeatherDisplay:10.37,2013-06-10 07:44:00,
2013-06-10 02:45:00,56.0,56.0,30.05,NNW,337,2.1,3.5,100,0.00,OVC,,0.00,WeatherDisplay:10.37,2013-06-10 07:45:00,
2013-06-10 02:46:00,56.0,56.0,30.05,NNW,337,1.5,3.5,100,0.00,OVC,,0.00,WeatherDisplay:10.37,2013-06-10 07:46:00,
2013-06-10 02:47:00,56.0,56.0,30.05,NNW,337,0.1,3.5,100,0.00,OVC,,0.00,WeatherDisplay:10.37,2013-06-10 07:47:00,
2013-06-10 02:48:00,56.0,56.0,30.05,NNW,337,0.1,1.2,100,0.00,OVC,,0.00,WeatherDisplay:10.37,2013-06-10 07:48:00,
2013-06-10 02:49:00,56.0,56.0,30.05,NNW,337,0.0,1.2,100,0.00,OVC,,0.00,WeatherDisplay:10.37,2013-06-10 07:49:00,
2013-06-10 02:50:00,57.0,57.0,30.05,NNW,337,0.0,1.2,100,0.00,OVC,,0.00,WeatherDisplay:10.37,2013-06-10 07:50:00,
2013-06-10 02:51:00,57.0,57.0,30.05,NNW,337,0.0,1.2,100,0.00,OVC,,0.00,WeatherDisplay:10.37,2013-06-10 07:51:00,
2013-06-10 02:53:00,57.0,57.0,30.05,NNW,337,0.1,1.2,100,0.00,OVC,,0.00,WeatherDisplay:10.37,2013-06-10 07:53:00,
2013-06-10 02:54:00,57.0,57.0,30.05,NNW,337,0.3,1.2,100,0.00,OVC,,0.00,WeatherDisplay:10.37,2013-06-10 07:54:00,
2013-06-10 02:56:00,57.0,57.0,30.05,NNW,337,0.1,1.2,100,0.00,OVC,,0.00,WeatherDisplay:10.37,2013-06-10 07:56:00,
2013-06-10 02:58:00,57.0,57.0,30.05,NNW,337,0.1,1.2,100,0.00,OVC,,0.00,WeatherDisplay:10.37,2013-06-10 07:58:00,
2013-06-10 02:59:00,57.0,57.0,30.05,NNW,337,0.2,1.2,100,0.00,OVC,,0.00,WeatherDisplay:10.37,2013-06-10 07:59:00,
2013-06-10 03:01:00,57.0,57.0,30.05,NNW,337,0.2,1.2,100,0.00,OVC,,0.00,WeatherDisplay:10.37,2013-06-10 08:01:00,
2013-06-10 03:03:00,57.0,57.0,30.05,NNW,337,0.0,0.0,100,0.00,OVC,,0.00,WeatherDisplay:10.37,2013-06-10 08:03:00,
2013-06-10 03:04:00,57.0,57.0,30.05,NNW,337,0.0,0.0,100,0.00,OVC,,0.00,WeatherDisplay:10.37,2013-06-10 08:04:00,
2013-06-10 03:06:00,57.0,57.0,30.05,NNW,337,0.0,0.0,100,0.00,OVC,,0.00,WeatherDisplay:10.37,2013-06-10 08:06:00,
2013-06-10 03:09:00,57.0,57.0,30.05,NNW,337,0.0,0.0,100,0.00,OVC,,0.00,WeatherDisplay:10.37,2013-06-10 08:09:00,
2013-06-10 03:12:00,57.0,57.0,30.05,NNW,337,1.8,5.0,100,0.00,OVC,,0.00,WeatherDisplay:10.37,2013-06-10 08:12:00,
2013-06-10 03:14:00,57.0,57.0,30.05,WNW,292,4.9,5.8,100,0.00,OVC,,0.00,WeatherDisplay:10.37,2013-06-10 08:14:00,
2013-06-10 03:17:00,57.0,57.0,30.05,WNW,292,5.3,8.1,100,0.00,OVC,,0.00,WeatherDisplay:10.37,2013-06-10 08:17:00,
2013-06-10 03:19:00,57.0,57.0,30.05,NW,315,3.2,4.6,100,0.00,OVC,,0.00,WeatherDisplay:10.37,2013-06-10 08:19:00,
2013-06-10 03:20:00,57.0,57.0,30.05,NW,315,1.7,3.5,100,0.00,OVC,,0.00,WeatherDisplay:10.37,2013-06-10 08:20:00,
2013-06-10 03:22:00,57.0,57.0,30.05,NNW,337,3.9,5.0,100,0.00,OVC,,0.00,WeatherDisplay:10.37,2013-06-10 08:22:00,
2013-06-10 03:24:00,58.0,58.0,30.04,NNW,337,2.4,4.6,100,0.00,OVC,,0.00,WeatherDisplay:10.37,2013-06-10 08:24:00,
2013-06-10 03:25:00,58.0,58.0,30.04,NNW,337,1.9,5.0,100,0.00,OVC,,0.00,WeatherDisplay:10.37,2013-06-10 08:25:00,
2013-06-10 03:27:00,58.0,58.0,30.04,NNW,337,1.8,4.6,100,0.00,OVC,,0.00,WeatherDisplay:10.37,2013-06-10 08:27:00,
2013-06-10 03:30:00,58.0,58.0,30.04,NNW,337,3.8,5.8,100,0.00,OVC,,0.00,WeatherDisplay:10.37,2013-06-10 08:30:00,
2013-06-10 03:32:00,58.0,58.0,30.05,NNW,337,5.7,6.9,100,0.00,OVC,,0.00,WeatherDisplay:10.37,2013-06-10 08:32:00,
2013-06-10 03:33:00,58.0,58.0,30.05,NNW,337,5.8,6.9,100,0.00,OVC,,0.00,WeatherDisplay:10.37,2013-06-10 08:33:00,
2013-06-10 03:35:00,58.0,58.0,30.05,NW,315,3.7,4.6,100,0.00,OVC,,0.00,WeatherDisplay:10.37,2013-06-10 08:35:00,
2013-06-10 03:37:00,58.0,58.0,30.05,NW,315,0.2,3.5,100,0.00,OVC,,0.00,WeatherDisplay:10.37,2013-06-10 08:37:00,
2013-06-10 03:38:00,58.0,58.0,30.05,NNW,337,1.4,3.5,100,0.00,OVC,,0.00,WeatherDisplay:10.37,2013-06-10 08:38:00,
2013-06-10 03:40:00,58.0,58.0,30.05,NW,315,0.0,0.0,100,0.00,OVC,,0.00,WeatherDisplay:10.37,2013-06-10 08:40:00,
2013-06-10 03:42:00,58.0,58.0,30.05,NW,315,2.3,5.0,100,0.00,OVC,,0.00,WeatherDisplay:10.37,2013-06-10 08:42:00,
2013-06-10 03:43:00,58.0,58.0,30.05,WNW,292,4.5,5.8,100,0.00,OVC,,0.00,WeatherDisplay:10.37,2013-06-10 08:43:00,
2013-06-10 03:45:00,58.0,58.0,30.05,NW,315,4.0,4.0,100,0.00,OVC,,0.00,WeatherDisplay:10.37,2013-06-10 08:45:00,
2013-06-10 03:47:00,58.0,58.0,30.05,WNW,292,4.9,5.8,100,0.00,OVC,,0.00,WeatherDisplay:10.37,2013-06-10 08:47:00,
2013-06-10 03:48:00,58.0,58.0,30.05,WNW,292,4.6,5.8,100,0.00,OVC,,0.00,WeatherDisplay:10.37,2013-06-10 08:48:00,
2013-06-10 03:49:00,58.0,58.0,30.05,WNW,292,4.5,5.8,100,0.00,OVC,,0.00,WeatherDisplay:10.37,2013-06-10 08:49:00,
2013-06-10 03:50:00,58.0,58.0,30.05,WNW,292,1.8,5.8,100,0.00,OVC,,0.00,WeatherDisplay:10.37,2013-06-10 08:50:00,
2013-06-10 03:51:00,58.0,58.0,30.05,WNW,292,1.5,3.5,100,0.00,OVC,,0.00,WeatherDisplay:10.37,2013-06-10 08:51:00,
2013-06-10 03:52:00,58.0,58.0,30.05,NNW,337,5.6,9.0,100,0.00,OVC,,0.00,WeatherDisplay:10.37,2013-06-10 08:52:00,
2013-06-10 03:53:00,58.0,58.0,30.04,WNW,292,5.6,10.4,100,0.00,OVC,,0.00,WeatherDisplay:10.37,2013-06-10 08:53:00,
2013-06-10 03:54:00,58.0,58.0,30.04,WNW,292,4.4,6.9,100,0.00,OVC,,0.00,WeatherDisplay:10.37,2013-06-10 08:54:00,
2013-06-10 03:55:00,58.0,58.0,30.04,NW,315,4.4,5.8,100,0.00,OVC,,0.00,WeatherDisplay:10.37,2013-06-10 08:55:00,
2013-06-10 03:56:00,58.0,58.0,30.04,NW,315,4.0,5.8,100,0.00,OVC,,0.00,WeatherDisplay:10.37,2013-06-10 08:56:00,
2013-06-10 03:58:00,58.0,58.0,30.04,NW,315,3.9,4.6,100,0.00,OVC,,0.00,WeatherDisplay:10.37,2013-06-10 08:58:00,
2013-06-10 03:59:00,58.0,58.0,30.04,NW,315,0.2,3.5,100,0.00,OVC,,0.00,WeatherDisplay:10.37,2013-06-10 08:59:00,
2013-06-10 04:00:00,58.0,58.0,30.04,NW,315,0.2,1.2,100,0.00,OVC,,0.00,WeatherDisplay:10.37,2013-06-10 09:00:00,
2013-06-10 04:02:00,58.0,58.0,30.04,NW,315,0.2,1.2,100,0.00,OVC,,0.00,WeatherDisplay:10.37,2013-06-10 09:02:00,
2013-06-10 04:03:00,58.0,58.0,30.04,WNW,292,0.7,3.0,100,0.00,OVC,,0.00,WeatherDisplay:10.37,2013-06-10 09:03:00,
2013-06-10 04:04:00,58.0,58.0,30.04,WNW,292,1.8,4.0,100,0.00,OVC,,0.00,WeatherDisplay:10.37,2013-06-10 09:04:00,
2013-06-10 04:05:00,58.0,58.0,30.04,WNW,292,3.1,3.5,100,0.00,OVC,,0.00,WeatherDisplay:10.37,2013-06-10 09:05:00,
2013-06-10 04:07:00,58.0,58.0,30.04,WNW,292,0.0,1.2,100,0.00,OVC,,0.00,WeatherDisplay:10.37,2013-06-10 09:07:00,
2013-06-10 04:09:00,58.0,58.0,30.04,WNW,292,0.0,1.2,100,0.00,OVC,,0.00,WeatherDisplay:10.37,2013-06-10 09:09:00,
2013-06-10 04:10:00,58.0,58.0,30.04,WNW,292,0.0,0.0,100,0.00,OVC,,0.00,WeatherDisplay:10.37,2013-06-10 09:10:00,
2013-06-10 04:11:00,58.0,58.0,30.04,WNW,292,0.0,0.0,100,0.00,OVC,,0.00,WeatherDisplay:10.37,2013-06-10 09:11:00,
2013-06-10 04:12:00,58.0,58.0,30.04,NNE,22,0.9,8.0,100,0.00,OVC,,0.00,WeatherDisplay:10.37,2013-06-10 09:12:00,
2013-06-10 04:14:00,58.0,58.0,30.04,North,360,8.7,11.5,100,0.00,OVC,,0.00,WeatherDisplay:10.37,2013-06-10 09:14:00,
2013-06-10 04:15:00,58.0,58.0,30.04,NNW,337,6.1,10.4,100,0.00,OVC,,0.00,WeatherDisplay:10.37,2013-06-10 09:15:00,
2013-06-10 04:17:00,58.0,58.0,30.04,NNW,337,6.8,10.4,100,0.00,OVC,,0.00,WeatherDisplay:10.37,2013-06-10 09:17:00,
2013-06-10 04:19:00,58.0,58.0,30.04,NE,45,5.1,10.0,100,0.00,OVC,,0.00,WeatherDisplay:10.37,2013-06-10 09:19:00,
2013-06-10 04:20:00,58.0,58.0,30.04,NNE,22,6.6,10.4,100,0.00,OVC,,0.00,WeatherDisplay:10.37,2013-06-10 09:20:00,
2013-06-10 04:22:00,58.0,58.0,30.04,North,360,5.7,6.9,100,0.00,OVC,,0.00,WeatherDisplay:10.37,2013-06-10 09:22:00,
2013-06-10 04:24:00,58.0,58.0,30.04,NNE,22,4.2,6.9,100,0.00,OVC,,0.00,WeatherDisplay:10.37,2013-06-10 09:24:00,
2013-06-10 04:25:00,58.0,58.0,30.04,NNE,22,3.3,5.8,100,0.00,OVC,,0.00,WeatherDisplay:10.37,2013-06-10 09:25:00,
2013-06-10 04:27:00,58.0,58.0,30.04,North,360,2.5,6.9,100,0.00,OVC,,0.00,WeatherDisplay:10.37,2013-06-10 09:27:00,
2013-06-10 04:28:00,58.0,58.0,30.04,NE,45,2.3,6.9,100,0.00,OVC,,0.00,WeatherDisplay:10.37,2013-06-10 09:28:00,
2013-06-10 04:29:00,58.0,58.0,30.04,North,360,6.0,6.9,100,0.00,OVC,,0.00,WeatherDisplay:10.37,2013-06-10 09:29:00,
2013-06-10 04:30:00,58.0,58.0,30.04,NNE,22,6.2,8.1,100,0.00,OVC,,0.00,WeatherDisplay:10.37,2013-06-10 09:30:00,
2013-06-10 04:31:00,58.0,58.0,30.04,NNE,22,4.8,8.1,100,0.00,OVC,,0.00,WeatherDisplay:10.37,2013-06-10 09:31:00,
2013-06-10 04:32:00,58.0,58.0,30.04,North,360,3.9,6.9,100,0.00,OVC,,0.00,WeatherDisplay:10.37,2013-06-10 09:32:00,
2013-06-10 04:33:00,58.0,58.0,30.04,North,360,3.3,4.6,100,0.00,OVC,,0.00,WeatherDisplay:10.37,2013-06-10 09:33:00,
2013-06-10 04:34:00,58.0,58.0,30.04,North,360,5.5,9.2,100,0.00,OVC,,0.00,WeatherDisplay:10.37,2013-06-10 09:34:00,
2013-06-10 04:35:00,58.0,58.0,30.04,NNW,337,5.3,6.9,100,0.00,OVC,,0.00,WeatherDisplay:10.37,2013-06-10 09:35:00,
2013-06-10 04:36:00,58.0,58.0,30.04,WNW,292,4.6,8.0,100,0.00,OVC,,0.00,WeatherDisplay:10.37,2013-06-10 09:36:00,
2013-06-10 04:37:00,58.0,58.0,30.04,NNW,337,6.2,8.1,100,0.00,OVC,,0.00,WeatherDisplay:10.37,2013-06-10 09:37:00,
2013-06-10 04:38:00,58.0,58.0,30.04,NNW,337,7.6,10.4,100,0.00,OVC,,0.00,WeatherDisplay:10.37,2013-06-10 09:38:00,
2013-06-10 04:39:00,58.0,58.0,30.04,NNW,337,5.5,9.2,100,0.00,OVC,,0.00,WeatherDisplay:10.37,2013-06-10 09:39:00,
2013-06-10 04:41:00,58.0,58.0,30.04,NNE,22,4.6,7.0,100,0.00,OVC,,0.00,WeatherDisplay:10.37,2013-06-10 09:41:00,
2013-06-10 04:43:00,58.0,58.0,30.04,North,360,4.0,6.9,100,0.00,OVC,,0.00,WeatherDisplay:10.37,2013-06-10 09:43:00,
2013-06-10 04:44:00,58.0,58.0,30.04,North,360,5.0,9.0,100,0.00,OVC,,0.00,WeatherDisplay:10.37,2013-06-10 09:44:00,
2013-06-10 04:46:00,58.0,58.0,30.04,NNE,22,6.3,9.2,100,0.00,OVC,,0.00,WeatherDisplay:10.37,2013-06-10 09:46:00,
2013-06-10 04:47:00,58.0,58.0,30.04,NNW,337,6.2,9.2,100,0.00,OVC,,0.00,WeatherDisplay:10.37,2013-06-10 09:47:00,
2013-06-10 04:48:00,58.0,58.0,30.04,NNW,337,6.8,8.1,100,0.00,OVC,,0.00,WeatherDisplay:10.37,2013-06-10 09:48:00,
2013-06-10 04:50:00,58.0,58.0,30.04,NNW,337,6.7,9.2,100,0.00,OVC,,0.00,WeatherDisplay:10.37,2013-06-10 09:50:00,
2013-06-10 04:51:00,58.0,58.0,30.04,North,360,6.5,10.4,100,0.00,OVC,,0.00,WeatherDisplay:10.37,2013-06-10 09:51:00,
2013-06-10 04:52:00,58.0,58.0,30.04,NNW,337,5.8,10.4,100,0.00,OVC,,0.00,WeatherDisplay:10.37,2013-06-10 09:52:00,
2013-06-10 04:53:00,58.0,58.0,30.04,NNE,22,6.0,9.2,100,0.00,OVC,,0.00,WeatherDisplay:10.37,2013-06-10 09:53:00,
2013-06-10 04:55:00,58.0,58.0,30.04,NNW,337,6.9,9.2,100,0.00,OVC,,0.00,WeatherDisplay:10.37,2013-06-10 09:55:00,
2013-06-10 04:57:00,58.0,58.0,30.04,NNW,337,5.5,8.1,100,0.00,OVC,,0.00,WeatherDisplay:10.37,2013-06-10 09:57:00,
2013-06-10 04:58:00,58.0,58.0,30.04,NNW,337,4.6,5.8,100,0.00,OVC,,0.00,WeatherDisplay:10.37,2013-06-10 09:58:00,
2013-06-10 04:59:00,58.0,58.0,30.04,NNW,337,4.7,6.0,100,0.00,OVC,,0.00,WeatherDisplay:10.37,2013-06-10 09:59:00,
2013-06-10 05:00:00,58.0,58.0,30.04,NW,315,4.8,6.0,100,0.00,OVC,,0.00,WeatherDisplay:10.37,2013-06-10 10:00:00,
2013-06-10 05:02:00,58.0,58.0,30.04,NNW,337,6.8,8.1,100,0.00,OVC,,0.00,WeatherDisplay:10.37,2013-06-10 10:02:00,
2013-06-10 05:04:00,58.0,58.0,30.05,NW,315,7.5,8.1,100,0.00,OVC,,0.00,WeatherDisplay:10.37,2013-06-10 10:04:00,
2013-06-10 05:06:00,58.0,58.0,30.05,NW,315,5.9,6.9,100,0.00,OVC,,0.00,WeatherDisplay:10.37,2013-06-10 10:06:00,
2013-06-10 05:07:00,58.0,58.0,30.05,NNW,337,5.7,6.9,100,0.00,OVC,,0.00,WeatherDisplay:10.37,2013-06-10 10:07:00,
2013-06-10 05:08:00,58.0,58.0,30.05,WNW,292,5.8,8.1,100,0.00,OVC,,0.00,WeatherDisplay:10.37,2013-06-10 10:08:00,
2013-06-10 05:09:00,58.0,58.0,30.05,WNW,292,6.5,9.2,100,0.00,OVC,,0.00,WeatherDisplay:10.37,2013-06-10 10:09:00,
2013-06-10 05:11:00,58.0,58.0,30.05,NNW,337,5.8,10.4,100,0.00,OVC,,0.00,WeatherDisplay:10.37,2013-06-10 10:11:00,
2013-06-10 05:13:00,58.0,58.0,30.05,NNW,337,7.0,8.1,100,0.00,OVC,,0.00,WeatherDisplay:10.37,2013-06-10 10:13:00,
2013-06-10 05:14:00,58.0,58.0,30.05,NW,315,6.0,6.9,100,0.00,OVC,,0.00,WeatherDisplay:10.37,2013-06-10 10:14:00,
2013-06-10 05:15:00,58.0,58.0,30.05,WNW,292,4.8,8.0,100,0.00,OVC,,0.00,WeatherDisplay:10.37,2013-06-10 10:15:00,
2013-06-10 05:16:00,58.0,58.0,30.05,WNW,292,7.5,8.1,100,0.00,OVC,,0.00,WeatherDisplay:10.37,2013-06-10 10:16:00,
2013-06-10 05:18:00,57.0,57.0,30.05,North,360,6.0,8.1,100,0.00,OVC,,0.00,WeatherDisplay:10.37,2013-06-10 10:18:00,
2013-06-10 05:19:00,57.0,57.0,30.05,NNW,337,6.0,8.1,100,0.00,OVC,,0.00,WeatherDisplay:10.37,2013-06-10 10:19:00,
2013-06-10 05:20:00,57.0,57.0,30.05,NNW,337,5.7,6.9,100,0.00,OVC,,0.00,WeatherDisplay:10.37,2013-06-10 10:20:00,
2013-06-10 05:21:00,57.0,57.0,30.05,NNW,337,5.2,7.0,100,0.00,OVC,,0.00,WeatherDisplay:10.37,2013-06-10 10:21:00,
2013-06-10 05:23:00,57.0,57.0,30.05,NNW,337,3.7,5.8,100,0.00,OVC,,0.00,WeatherDisplay:10.37,2013-06-10 10:23:00,
2013-06-10 05:24:00,57.0,57.0,30.05,NW,315,4.7,7.0,100,0.00,OVC,,0.00,WeatherDisplay:10.37,2013-06-10 10:24:00,
2013-06-10 05:27:00,57.0,57.0,30.05,WNW,292,4.9,5.0,100,0.00,OVC,,0.00,WeatherDisplay:10.37,2013-06-10 10:27:00,
2013-06-10 05:29:00,57.0,57.0,30.05,WNW,292,3.6,5.0,100,0.00,OVC,,0.00,WeatherDisplay:10.37,2013-06-10 10:29:00,
2013-06-10 05:30:00,57.0,57.0,30.05,West,270,4.8,6.0,100,0.00,OVC,,0.00,WeatherDisplay:10.37,2013-06-10 10:30:00,
2013-06-10 05:32:00,57.0,57.0,30.05,NW,315,6.4,8.1,100,0.00,OVC,,0.00,WeatherDisplay:10.37,2013-06-10 10:32:00,
2013-06-10 05:34:00,57.0,57.0,30.06,NNW,337,5.0,6.0,100,0.00,OVC,,0.00,WeatherDisplay:10.37,2013-06-10 10:34:00,
2013-06-10 05:35:00,57.0,57.0,30.06,NNE,22,5.0,5.8,100,0.00,OVC,,0.00,WeatherDisplay:10.37,2013-06-10 10:35:00,
2013-06-10 05:37:00,57.0,57.0,30.06,NNW,337,4.9,6.0,100,0.00,OVC,,0.00,WeatherDisplay:10.37,2013-06-10 10:37:00,
2013-06-10 05:39:00,57.0,57.0,30.06,NW,315,5.1,7.0,100,0.00,OVC,,0.00,WeatherDisplay:10.37,2013-06-10 10:39:00,
2013-06-10 05:40:00,57.0,57.0,30.06,WNW,292,5.4,6.9,100,0.00,OVC,,0.00,WeatherDisplay:10.37,2013-06-10 10:40:00,
2013-06-10 05:42:00,58.0,58.0,30.06,WNW,292,5.1,7.0,100,0.00,OVC,,0.00,WeatherDisplay:10.37,2013-06-10 10:42:00,
2013-06-10 05:43:00,58.0,58.0,30.06,WNW,292,5.1,7.0,100,0.00,OVC,,0.00,WeatherDisplay:10.37,2013-06-10 10:43:00,
2013-06-10 05:44:00,57.0,57.0,30.06,WNW,292,7.7,9.2,100,0.00,OVC,,0.00,WeatherDisplay:10.37,2013-06-10 10:44:00,
2013-06-10 05:45:00,57.0,57.0,30.06,WNW,292,8.0,9.2,100,0.00,OVC,,0.00,WeatherDisplay:10.37,2013-06-10 10:45:00,
2013-06-10 05:46:00,57.0,57.0,30.06,WNW,292,7.9,9.2,100,0.00,OVC,,0.00,WeatherDisplay:10.37,2013-06-10 10:46:00,
2013-06-10 05:48:00,57.0,57.0,30.06,NW,315,4.8,5.8,100,0.00,OVC,,0.00,WeatherDisplay:10.37,2013-06-10 10:48:00,
2013-06-10 05:49:00,57.0,57.0,30.06,NNW,337,5.3,7.0,100,0.00,OVC,,0.00,WeatherDisplay:10.37,2013-06-10 10:49:00,
2013-06-10 05:50:00,57.0,57.0,30.06,NNW,337,6.2,7.0,100,0.00,OVC,,0.00,WeatherDisplay:10.37,2013-06-10 10:50:00,
2013-06-10 05:51:00,57.0,57.0,30.06,NW,315,6.5,8.1,100,0.00,OVC,,0.00,WeatherDisplay:10.37,2013-06-10 10:51:00,
2013-06-10 05:53:00,57.0,57.0,30.06,NW,315,6.8,10.0,100,0.00,OVC,,0.00,WeatherDisplay:10.37,2013-06-10 10:53:00,
2013-06-10 05:54:00,57.0,57.0,30.06,NW,315,7.9,10.4,100,0.00,OVC,,0.00,WeatherDisplay:10.37,2013-06-10 10:54:00,
2013-06-10 05:55:00,57.0,57.0,30.06,WNW,292,8.5,10.4,100,0.00,OVC,,0.00,WeatherDisplay:10.37,2013-06-10 10:55:00,
2013-06-10 05:56:00,57.0,57.0,30.06,WNW,292,8.1,9.2,100,0.00,OVC,,0.00,WeatherDisplay:10.37,2013-06-10 10:56:00,
2013-06-10 05:58:00,57.0,57.0,30.06,WNW,292,7.0,10.4,100,0.00,OVC,,0.00,WeatherDisplay:10.37,2013-06-10 10:58:00,
2013-06-10 05:59:00,57.0,57.0,30.06,WNW,292,6.9,8.1,100,0.00,OVC,,0.00,WeatherDisplay:10.37,2013-06-10 10:59:00,
2013-06-10 06:00:00,57.0,57.0,30.06,NNW,337,7.4,9.2,100,0.00,OVC,,0.00,WeatherDisplay:10.37,2013-06-10 11:00:00,
2013-06-10 06:03:00,57.0,57.0,30.06,NNW,337,5.5,7.0,100,0.00,OVC,,0.00,WeatherDisplay:10.37,2013-06-10 11:03:00,
2013-06-10 06:04:00,57.0,57.0,30.06,WNW,292,6.8,8.1,100,0.00,OVC,,0.00,WeatherDisplay:10.37,2013-06-10 11:04:00,
2013-06-10 06:05:00,57.0,57.0,30.06,WNW,292,6.5,9.0,100,0.00,OVC,,0.00,WeatherDisplay:10.37,2013-06-10 11:05:00,
2013-06-10 06:07:00,57.0,57.0,30.06,WNW,292,7.8,9.2,100,0.00,OVC,,0.00,WeatherDisplay:10.37,2013-06-10 11:07:00,
2013-06-10 06:08:00,57.0,57.0,30.06,NNW,337,7.0,9.2,100,0.00,OVC,,0.00,WeatherDisplay:10.37,2013-06-10 11:08:00,
2013-06-10 06:09:00,57.0,57.0,30.06,WNW,292,8.6,10.4,100,0.00,OVC,,0.00,WeatherDisplay:10.37,2013-06-10 11:09:00,
2013-06-10 06:10:00,57.0,57.0,30.06,WSW,247,7.8,10.4,100,0.00,OVC,,0.00,WeatherDisplay:10.37,2013-06-10 11:10:00,
2013-06-10 06:12:00,57.0,57.0,30.06,WNW,292,9.2,10.4,100,0.00,OVC,,0.00,WeatherDisplay:10.37,2013-06-10 11:12:00,
2013-06-10 06:13:00,57.0,57.0,30.06,WNW,292,8.4,10.4,100,0.00,OVC,,0.00,WeatherDisplay:10.37,2013-06-10 11:13:00,
2013-06-10 06:14:00,57.0,57.0,30.06,WNW,292,5.5,6.9,100,0.00,OVC,,0.00,WeatherDisplay:10.37,2013-06-10 11:14:00,
2013-06-10 06:15:00,57.0,57.0,30.06,WNW,292,7.2,9.2,100,0.00,OVC,,0.00,WeatherDisplay:10.37,2013-06-10 11:15:00,
2013-06-10 06:17:00,57.0,57.0,30.06,WNW,292,5.0,6.9,100,0.00,OVC,,0.00,WeatherDisplay:10.37,2013-06-10 11:17:00,
2013-06-10 06:18:00,57.0,57.0,30.06,WNW,292,4.6,5.8,100,0.00,OVC,,0.00,WeatherDisplay:10.37,2013-06-10 11:18:00,
2013-06-10 06:19:00,57.0,57.0,30.06,WNW,292,5.7,7.0,100,0.00,OVC,,0.00,WeatherDisplay:10.37,2013-06-10 11:19:00,
2013-06-10 06:20:00,57.0,57.0,30.06,WNW,292,5.5,6.9,100,0.00,OVC,,0.00,WeatherDisplay:10.37,2013-06-10 11:20:00,
2013-06-10 06:21:00,57.0,57.0,30.06,WNW,292,5.5,6.9,100,0.00,OVC,,0.00,WeatherDisplay:10.37,2013-06-10 11:21:00,
2013-06-10 06:22:00,57.0,57.0,30.06,WNW,292,6.9,10.4,100,0.00,OVC,,0.00,WeatherDisplay:10.37,2013-06-10 11:22:00,
2013-06-10 06:23:00,57.0,57.0,30.05,WNW,292,6.0,6.9,100,0.00,OVC,,0.00,WeatherDisplay:10.37,2013-06-10 11:23:00,
2013-06-10 06:24:00,57.0,57.0,30.05,WNW,292,6.4,8.0,100,0.00,OVC,,0.00,WeatherDisplay:10.37,2013-06-10 11:24:00,
2013-06-10 06:25:00,57.0,57.0,30.05,WNW,292,4.3,8.1,100,0.00,OVC,,0.00,WeatherDisplay:10.37,2013-06-10 11:25:00,
2013-06-10 06:26:00,57.0,57.0,30.05,WNW,292,3.4,6.9,100,0.00,OVC,,0.00,WeatherDisplay:10.37,2013-06-10 11:26:00,
2013-06-10 06:27:00,57.0,57.0,30.05,WNW,292,3.3,5.0,100,0.00,OVC,,0.00,WeatherDisplay:10.37,2013-06-10 11:27:00,
2013-06-10 06:28:00,57.0,57.0,30.05,WNW,292,4.4,4.6,100,0.00,OVC,,0.00,WeatherDisplay:10.37,2013-06-10 11:28:00,
2013-06-10 06:30:00,57.0,57.0,30.05,NNW,337,4.1,5.0,100,0.00,OVC,,0.00,WeatherDisplay:10.37,2013-06-10 11:30:00,
2013-06-10 06:31:00,57.0,57.0,30.05,WNW,292,4.6,5.0,100,0.00,OVC,,0.00,WeatherDisplay:10.37,2013-06-10 11:31:00,
2013-06-10 06:33:00,57.0,57.0,30.05,WNW,292,5.4,6.9,100,0.00,OVC,,0.00,WeatherDisplay:10.37,2013-06-10 11:33:00,
2013-06-10 06:35:00,57.0,57.0,30.05,NW,315,3.7,5.0,100,0.00,OVC,,0.00,WeatherDisplay:10.37,2013-06-10 11:35:00,
2013-06-10 06:36:00,57.0,57.0,30.05,NW,315,3.6,4.6,100,0.00,OVC,,0.00,WeatherDisplay:10.37,2013-06-10 11:36:00,
2013-06-10 06:38:00,57.0,57.0,30.05,North,360,3.6,4.0,100,0.00,OVC,,0.00,WeatherDisplay:10.37,2013-06-10 11:38:00,
2013-06-10 06:39:00,57.0,57.0,30.05,North,360,3.5,3.5,100,0.00,OVC,,0.00,WeatherDisplay:10.37,2013-06-10 11:39:00,
2013-06-10 06:40:00,57.0,57.0,30.05,NW,315,6.0,6.9,100,0.00,OVC,,0.00,WeatherDisplay:10.37,2013-06-10 11:40:00,
2013-06-10 06:41:00,57.0,57.0,30.05,WNW,292,3.9,5.8,100,0.00,OVC,,0.00,WeatherDisplay:10.37,2013-06-10 11:41:00,
2013-06-10 06:42:00,57.0,57.0,30.05,WNW,292,3.9,4.6,100,0.00,OVC,,0.00,WeatherDisplay:10.37,2013-06-10 11:42:00,
2013-06-10 06:43:00,57.0,57.0,30.06,West,270,4.3,5.0,100,0.00,OVC,,0.00,WeatherDisplay:10.37,2013-06-10 11:43:00,
2013-06-10 06:44:00,57.0,57.0,30.06,West,270,4.0,5.8,100,0.00,OVC,,0.00,WeatherDisplay:10.37,2013-06-10 11:44:00,
2013-06-10 06:45:00,57.0,57.0,30.06,West,270,2.6,5.8,100,0.00,OVC,,0.00,WeatherDisplay:10.37,2013-06-10 11:45:00,
2013-06-10 06:47:00,57.0,57.0,30.06,WNW,292,4.5,6.9,100,0.00,OVC,,0.00,WeatherDisplay:10.37,2013-06-10 11:47:00,
2013-06-10 06:48:00,57.0,57.0,30.06,WNW,292,4.2,4.6,100,0.00,OVC,,0.00,WeatherDisplay:10.37,2013-06-10 11:48:00,
2013-06-10 06:49:00,57.0,57.0,30.06,NW,315,3.3,4.6,100,0.00,OVC,,0.00,WeatherDisplay:10.37,2013-06-10 11:49:00,
2013-06-10 06:51:00,57.0,57.0,30.06,West,270,4.3,5.8,100,0.00,OVC,,0.00,WeatherDisplay:10.37,2013-06-10 11:51:00,
2013-06-10 06:52:00,57.0,57.0,30.06,West,270,3.9,5.8,100,0.00,OVC,,0.00,WeatherDisplay:10.37,2013-06-10 11:52:00,
2013-06-10 06:54:00,57.0,57.0,30.07,West,270,3.3,5.0,100,0.00,OVC,,0.00,WeatherDisplay:10.37,2013-06-10 11:54:00,
2013-06-10 06:57:00,57.0,57.0,30.07,WNW,292,5.3,7.0,100,0.00,OVC,,0.00,WeatherDisplay:10.37,2013-06-10 11:57:00,
2013-06-10 06:58:00,57.0,57.0,30.07,West,270,3.2,6.9,100,0.00,OVC,,0.00,WeatherDisplay:10.37,2013-06-10 11:58:00,
2013-06-10 06:59:00,57.0,57.0,30.07,West,270,5.1,6.9,100,0.00,OVC,,0.00,WeatherDisplay:10.37,2013-06-10 11:59:00,
2013-06-10 07:02:00,57.0,57.0,30.07,West,270,5.3,5.8,100,0.00,OVC,,0.00,WeatherDisplay:10.37,2013-06-10 12:02:00,
2013-06-10 07:03:00,57.0,57.0,30.08,West,270,6.3,8.1,100,0.00,OVC,,0.00,WeatherDisplay:10.37,2013-06-10 12:03:00,
2013-06-10 07:04:00,57.0,57.0,30.08,West,270,5.5,8.0,100,0.00,OVC,,0.00,WeatherDisplay:10.37,2013-06-10 12:04:00,
2013-06-10 07:05:00,57.0,57.0,30.08,West,270,5.8,8.1,100,0.00,OVC,,0.00,WeatherDisplay:10.37,2013-06-10 12:05:00,
2013-06-10 07:07:00,57.0,57.0,30.08,West,270,5.5,8.1,100,0.00,OVC,,0.00,WeatherDisplay:10.37,2013-06-10 12:07:00,
2013-06-10 07:08:00,57.0,57.0,30.08,WSW,247,4.9,9.2,100,0.00,OVC,,0.00,WeatherDisplay:10.37,2013-06-10 12:08:00,
2013-06-10 07:09:00,56.0,56.0,30.08,WSW,247,6.8,9.2,100,0.00,OVC,,0.00,WeatherDisplay:10.37,2013-06-10 12:09:00,
2013-06-10 07:10:00,56.0,56.0,30.08,WSW,247,6.5,9.2,100,0.00,OVC,,0.00,WeatherDisplay:10.37,2013-06-10 12:10:00,
2013-06-10 07:13:00,57.0,57.0,30.08,WNW,292,0.5,5.8,100,0.00,OVC,,0.00,WeatherDisplay:10.37,2013-06-10 12:13:00,
2013-06-10 07:14:00,56.0,56.0,30.08,WNW,292,2.7,4.0,100,0.00,OVC,,0.00,WeatherDisplay:10.37,2013-06-10 12:14:00,
2013-06-10 07:15:00,56.0,56.0,30.08,WNW,292,1.6,3.5,100,0.00,OVC,,0.00,WeatherDisplay:10.37,2013-06-10 12:15:00,
2013-06-10 07:18:00,56.0,56.0,30.08,WNW,292,6.7,8.0,100,0.00,OVC,,0.00,WeatherDisplay:10.37,2013-06-10 12:18:00,
2013-06-10 07:19:00,56.0,56.0,30.08,WNW,292,6.9,8.1,100,0.00,OVC,,0.00,WeatherDisplay:10.37,2013-06-10 12:19:00,
2013-06-10 07:20:00,56.0,56.0,30.08,WNW,292,5.8,6.9,100,0.00,OVC,,0.00,WeatherDisplay:10.37,2013-06-10 12:20:00,
2013-06-10 07:23:00,57.0,57.0,30.07,West,270,5.6,8.1,100,0.00,OVC,,0.00,WeatherDisplay:10.37,2013-06-10 12:23:00,
2013-06-10 07:24:00,56.0,56.0,30.07,WSW,247,4.7,6.9,100,0.00,OVC,,0.00,WeatherDisplay:10.37,2013-06-10 12:24:00,
2013-06-10 07:25:00,56.0,56.0,30.07,West,270,6.3,9.0,100,0.00,OVC,,0.00,WeatherDisplay:10.37,2013-06-10 12:25:00,
2013-06-10 07:28:00,56.0,56.0,30.07,WNW,292,5.5,8.1,100,0.00,OVC,,0.00,WeatherDisplay:10.37,2013-06-10 12:28:00,
2013-06-10 07:29:00,56.0,56.0,30.07,WNW,292,6.0,6.9,100,0.00,OVC,,0.00,WeatherDisplay:10.37,2013-06-10 12:29:00,
2013-06-10 07:30:00,56.0,56.0,30.07,WNW,292,5.2,6.0,100,0.00,OVC,,0.00,WeatherDisplay:10.37,2013-06-10 12:30:00,
2013-06-10 07:34:00,56.0,56.0,30.07,WSW,247,4.1,5.8,100,0.00,OVC,,0.00,WeatherDisplay:10.37,2013-06-10 12:34:00,
2013-06-10 07:35:00,56.0,56.0,30.07,WSW,247,3.5,5.8,100,0.00,OVC,,0.00,WeatherDisplay:10.37,2013-06-10 12:35:00,
2013-06-10 07:36:00,56.0,56.0,30.07,WSW,247,3.4,7.0,100,0.00,OVC,,0.00,WeatherDisplay:10.37,2013-06-10 12:36:00,
2013-06-10 07:39:00,56.0,56.0,30.07,WNW,292,4.2,5.8,100,0.00,OVC,,0.00,WeatherDisplay:10.37,2013-06-10 12:39:00,
2013-06-10 07:40:00,56.0,56.0,30.07,WNW,292,5.7,8.1,100,0.00,OVC,,0.00,WeatherDisplay:10.37,2013-06-10 12:40:00,
2013-06-10 07:41:00,56.0,56.0,30.07,WNW,292,7.5,9.2,100,0.00,OVC,,0.00,WeatherDisplay:10.37,2013-06-10 12:41:00,
2013-06-10 07:44:00,56.0,56.0,30.07,WNW,292,2.6,5.8,100,0.00,OVC,,0.00,WeatherDisplay:10.37,2013-06-10 12:44:00,
2013-06-10 07:45:00,56.0,56.0,30.07,WNW,292,1.3,5.0,100,0.00,OVC,,0.00,WeatherDisplay:10.37,2013-06-10 12:45:00,
2013-06-10 07:46:00,56.0,56.0,30.07,WNW,292,4.6,6.0,100,0.00,OVC,,0.00,WeatherDisplay:10.37,2013-06-10 12:46:00,
2013-06-10 07:49:00,56.0,56.0,30.07,NW,315,6.5,8.1,100,0.00,OVC,,0.00,WeatherDisplay:10.37,2013-06-10 12:49:00,
2013-06-10 07:50:00,56.0,56.0,30.07,NW,315,5.5,6.9,100,0.00,OVC,,0.00,WeatherDisplay:10.37,2013-06-10 12:50:00,
2013-06-10 07:51:00,56.0,56.0,30.07,NW,315,6.2,9.2,100,0.00,OVC,,0.00,WeatherDisplay:10.37,2013-06-10 12:51:00,
2013-06-10 07:54:00,56.0,56.0,30.08,WNW,292,8.9,11.5,100,0.00,OVC,,0.00,WeatherDisplay:10.37,2013-06-10 12:54:00,
2013-06-10 07:55:00,56.0,56.0,30.08,WNW,292,7.6,10.4,100,0.00,OVC,,0.00,WeatherDisplay:10.37,2013-06-10 12:55:00,
2013-06-10 07:56:00,56.0,56.0,30.08,WNW,292,6.8,8.1,100,0.00,OVC,,0.00,WeatherDisplay:10.37,2013-06-10 12:56:00,
2013-06-10 08:00:00,56.0,56.0,30.08,West,270,2.5,4.6,100,0.00,OVC,,0.00,WeatherDisplay:10.37,2013-06-10 13:00:00,
2013-06-10 08:01:00,56.0,56.0,30.08,West,270,3.6,4.6,100,0.00,OVC,,0.00,WeatherDisplay:10.37,2013-06-10 13:01:00,
2013-06-10 08:02:00,56.0,56.0,30.08,WSW,247,6.0,8.1,100,0.00,OVC,,0.00,WeatherDisplay:10.37,2013-06-10 13:02:00,
2013-06-10 08:05:00,56.0,56.0,30.09,WNW,292,7.6,9.2,100,0.00,OVC,,0.00,WeatherDisplay:10.37,2013-06-10 13:05:00,
2013-06-10 08:06:00,56.0,56.0,30.09,WNW,292,6.8,9.2,100,0.00,OVC,,0.00,WeatherDisplay:10.37,2013-06-10 13:06:00,
2013-06-10 08:07:00,56.0,56.0,30.09,NW,315,6.3,6.9,100,0.00,OVC,,0.00,WeatherDisplay:10.37,2013-06-10 13:07:00,
2013-06-10 08:11:00,56.0,56.0,30.09,NW,315,7.3,9.2,100,0.00,OVC,,0.00,WeatherDisplay:10.37,2013-06-10 13:11:00,
2013-06-10 08:12:00,56.0,56.0,30.09,NW,315,4.5,6.9,100,0.00,OVC,,0.00,WeatherDisplay:10.37,2013-06-10 13:12:00,
2013-06-10 08:16:00,57.0,57.0,30.09,West,270,3.2,6.0,100,0.00,OVC,,0.00,WeatherDisplay:10.37,2013-06-10 13:16:00,
2013-06-10 08:17:00,57.0,57.0,30.09,WNW,292,5.1,7.0,100,0.00,OVC,,0.00,WeatherDisplay:10.37,2013-06-10 13:17:00,
2013-06-10 08:18:00,57.0,57.0,30.09,WNW,292,5.4,6.9,100,0.00,OVC,,0.00,WeatherDisplay:10.37,2013-06-10 13:18:00,
2013-06-10 08:21:00,57.0,57.0,30.09,West,270,5.3,8.1,100,0.00,OVC,,0.00,WeatherDisplay:10.37,2013-06-10 13:21:00,
2013-06-10 08:22:00,57.0,57.0,30.09,WSW,247,4.2,6.9,100,0.00,OVC,,0.00,WeatherDisplay:10.37,2013-06-10 13:22:00,
2013-06-10 08:23:00,57.0,57.0,30.10,West,270,5.3,6.9,100,0.00,OVC,,0.00,WeatherDisplay:10.37,2013-06-10 13:23:00,
2013-06-10 08:26:00,57.0,57.0,30.10,WNW,292,4.9,6.9,100,0.00,OVC,,0.00,WeatherDisplay:10.37,2013-06-10 13:26:00,
2013-06-10 08:27:00,57.0,57.0,30.10,WSW,247,3.4,6.9,100,0.00,OVC,,0.00,WeatherDisplay:10.37,2013-06-10 13:27:00,
2013-06-10 08:28:00,57.0,57.0,30.10,WSW,247,2.2,4.6,100,0.00,OVC,,0.00,WeatherDisplay:10.37,2013-06-10 13:28:00,
2013-06-10 08:32:00,57.0,57.0,30.09,NNW,337,5.0,8.1,100,0.00,OVC,,0.00,WeatherDisplay:10.37,2013-06-10 13:32:00,
2013-06-10 08:33:00,57.0,57.0,30.09,NNW,337,3.4,6.9,100,0.00,OVC,,0.00,WeatherDisplay:10.37,2013-06-10 13:33:00,
2013-06-10 08:37:00,57.0,57.0,30.09,NE,45,2.6,5.0,100,0.00,OVC,,0.00,WeatherDisplay:10.37,2013-06-10 13:37:00,
2013-06-10 08:38:00,57.0,57.0,30.09,NE,45,2.8,5.8,100,0.00,OVC,,0.00,WeatherDisplay:10.37,2013-06-10 13:38:00,
2013-06-10 08:43:00,58.0,58.0,30.07,East,90,4.4,5.8,100,0.00,OVC,,0.00,WeatherDisplay:10.37,2013-06-10 13:43:00,
2013-06-10 08:48:00,58.0,58.0,30.07,NE,45,4.8,9.2,100,0.00,OVC,,0.00,WeatherDisplay:10.37,2013-06-10 13:48:00,
2013-06-10 08:49:00,58.0,58.0,30.07,NNE,22,4.1,4.6,100,0.00,OVC,,0.00,WeatherDisplay:10.37,2013-06-10 13:49:00,
2013-06-10 08:53:00,58.0,58.0,30.05,ENE,67,6.0,11.5,100,0.00,OVC,,0.00,WeatherDisplay:10.37,2013-06-10 13:53:00,
2013-06-10 08:54:00,58.0,58.0,30.05,ENE,67,2.8,5.8,100,0.00,OVC,,0.00,WeatherDisplay:10.37,2013-06-10 13:54:00,
2013-06-10 08:58:00,58.0,58.0,30.05,NE,45,4.8,9.2,100,0.00,OVC,,0.00,WeatherDisplay:10.37,2013-06-10 13:58:00,
2013-06-10 08:59:00,58.0,58.0,30.05,ENE,67,3.8,6.9,100,0.00,OVC,,0.00,WeatherDisplay:10.37,2013-06-10 13:59:00,
2013-06-10 09:04:00,58.0,58.0,30.06,NE,45,3.8,4.6,100,0.00,OVC,,0.00,WeatherDisplay:10.37,2013-06-10 14:04:00,
2013-06-10 09:06:00,59.0,59.0,30.06,ESE,112,4.4,8.1,100,0.00,OVC,,0.00,WeatherDisplay:10.37,2013-06-10 14:06:00,
2013-06-10 09:09:00,59.0,59.0,30.06,ENE,67,2.7,6.9,100,0.00,OVC,,0.00,WeatherDisplay:10.37,2013-06-10 14:09:00,
2013-06-10 09:11:00,59.0,59.0,30.06,ENE,67,1.4,5.8,100,0.00,OVC,,0.00,WeatherDisplay:10.37,2013-06-10 14:11:00,
2013-06-10 09:14:00,59.0,59.0,30.05,NE,45,3.6,5.8,100,0.00,OVC,,0.00,WeatherDisplay:10.37,2013-06-10 14:14:00,
2013-06-10 09:15:00,59.0,59.0,30.05,East,90,2.0,4.6,100,0.00,OVC,,0.00,WeatherDisplay:10.37,2013-06-10 14:15:00,
2013-06-10 09:16:00,59.0,59.0,30.05,NNE,22,3.9,6.0,100,0.00,OVC,,0.00,WeatherDisplay:10.37,2013-06-10 14:16:00,
2013-06-10 09:19:00,59.0,59.0,30.05,East,90,3.3,4.6,100,0.00,OVC,,0.00,WeatherDisplay:10.37,2013-06-10 14:19:00,
2013-06-10 09:20:00,59.0,59.0,30.05,NE,45,4.3,8.1,100,0.00,OVC,,0.00,WeatherDisplay:10.37,2013-06-10 14:20:00,
2013-06-10 09:21:00,59.0,59.0,30.05,ENE,67,4.2,8.1,100,0.00,OVC,,0.00,WeatherDisplay:10.37,2013-06-10 14:21:00,
2013-06-10 09:24:00,59.0,59.0,30.05,NNE,22,4.7,5.8,100,0.00,OVC,,0.00,WeatherDisplay:10.37,2013-06-10 14:24:00,
2013-06-10 09:25:00,59.0,59.0,30.05,NE,45,3.5,8.1,100,0.00,OVC,,0.00,WeatherDisplay:10.37,2013-06-10 14:25:00,
2013-06-10 09:26:00,60.0,60.0,30.05,NNE,22,3.2,5.8,100,0.00,OVC,,0.00,WeatherDisplay:10.37,2013-06-10 14:26:00,
2013-06-10 09:29:00,60.0,60.0,30.05,SSE,157,1.0,2.3,100,0.00,OVC,,0.00,WeatherDisplay:10.37,2013-06-10 14:29:00,
2013-06-10 09:30:00,60.0,60.0,30.05,SSE,157,0.5,3.5,100,0.00,OVC,,0.00,WeatherDisplay:10.37,2013-06-10 14:30:00,
2013-06-10 09:31:00,60.0,60.0,30.05,SSE,157,1.3,3.5,100,0.00,OVC,,0.00,WeatherDisplay:10.37,2013-06-10 14:31:00,
2013-06-10 09:32:00,60.0,60.0,30.05,ESE,112,1.2,3.5,100,0.00,OVC,,0.00,WeatherDisplay:10.37,2013-06-10 14:32:00,
2013-06-10 09:34:00,60.0,60.0,30.05,ESE,112,1.3,3.5,100,0.00,OVC,,0.00,WeatherDisplay:10.37,2013-06-10 14:34:00,
2013-06-10 09:35:00,60.0,60.0,30.05,ESE,112,0.0,4.6,100,0.00,OVC,,0.00,WeatherDisplay:10.37,2013-06-10 14:35:00,
2013-06-10 09:36:00,60.0,60.0,30.05,ESE,112,0.0,4.6,100,0.00,OVC,,0.00,WeatherDisplay:10.37,2013-06-10 14:36:00,
2013-06-10 09:37:00,60.0,60.0,30.05,NNE,22,1.4,7.0,100,0.00,OVC,,0.00,WeatherDisplay:10.37,2013-06-10 14:37:00,
2013-06-10 09:40:00,60.0,60.0,30.05,NNE,22,4.3,7.0,100,0.00,OVC,,0.00,WeatherDisplay:10.37,2013-06-10 14:40:00,
2013-06-10 09:41:00,60.0,60.0,30.05,NE,45,5.7,8.1,100,0.00,OVC,,0.00,WeatherDisplay:10.37,2013-06-10 14:41:00,
2013-06-10 09:42:00,60.0,60.0,30.05,NE,45,5.0,6.0,100,0.00,OVC,,0.00,WeatherDisplay:10.37,2013-06-10 14:42:00,
2013-06-10 09:45:00,60.0,60.0,30.05,NNE,22,2.2,5.8,100,0.00,OVC,,0.00,WeatherDisplay:10.37,2013-06-10 14:45:00,
2013-06-10 09:46:00,60.0,60.0,30.05,NNE,22,2.2,5.8,100,0.00,OVC,,0.00,WeatherDisplay:10.37,2013-06-10 14:46:00,
2013-06-10 09:47:00,61.0,61.0,30.05,ENE,67,2.7,5.8,100,0.00,OVC,,0.00,WeatherDisplay:10.37,2013-06-10 14:47:00,
2013-06-10 09:48:00,61.0,61.0,30.05,NE,45,1.5,5.0,100,0.00,OVC,,0.00,WeatherDisplay:10.37,2013-06-10 14:48:00,
2013-06-10 09:50:00,61.0,61.0,30.05,NNE,22,0.1,2.3,100,0.00,OVC,,0.00,WeatherDisplay:10.37,2013-06-10 14:50:00,
2013-06-10 09:51:00,61.0,61.0,30.05,NNE,22,0.0,1.2,100,0.00,OVC,,0.00,WeatherDisplay:10.37,2013-06-10 14:51:00,
2013-06-10 09:52:00,62.0,62.0,30.05,NNE,22,0.1,2.3,100,0.00,OVC,,0.00,WeatherDisplay:10.37,2013-06-10 14:52:00,
2013-06-10 09:53:00,62.0,62.0,30.05,NNE,22,0.0,2.3,100,0.00,OVC,,0.00,WeatherDisplay:10.37,2013-06-10 14:53:00,
2013-06-10 09:55:00,61.0,61.0,30.05,NE,45,6.2,8.1,100,0.00,OVC,,0.00,WeatherDisplay:10.37,2013-06-10 14:55:00,
2013-06-10 09:57:00,61.0,61.0,30.05,SW,225,0.1,3.5,100,0.00,OVC,,0.00,WeatherDisplay:10.37,2013-06-10 14:57:00,
2013-06-10 09:58:00,61.0,61.0,30.05,North,360,1.1,4.6,100,0.00,OVC,,0.00,WeatherDisplay:10.37,2013-06-10 14:58:00,
2013-06-10 10:00:00,61.0,61.0,30.05,North,360,3.9,5.8,100,0.00,OVC,,0.00,WeatherDisplay:10.37,2013-06-10 15:00:00,
2013-06-10 10:02:00,62.0,62.0,30.05,NNW,337,4.0,5.8,100,0.00,OVC,,0.00,WeatherDisplay:10.37,2013-06-10 15:02:00,
2013-06-10 10:03:00,62.0,62.0,30.05,NNW,337,4.2,5.8,100,0.00,OVC,,0.00,WeatherDisplay:10.37,2013-06-10 15:03:00,
2013-06-10 10:05:00,61.0,61.0,30.05,NNW,337,2.6,4.6,100,0.00,OVC,,0.00,WeatherDisplay:10.37,2013-06-10 15:05:00,
2013-06-10 10:07:00,61.0,61.0,30.05,NNW,337,2.6,3.5,100,0.00,OVC,,0.00,WeatherDisplay:10.37,2013-06-10 15:07:00,
2013-06-10 10:08:00,61.0,61.0,30.05,NNW,337,2.5,3.5,100,0.00,OVC,,0.00,WeatherDisplay:10.37,2013-06-10 15:08:00,
2013-06-10 10:11:00,62.0,62.0,30.05,NNW,337,0.0,0.0,100,0.00,OVC,,0.00,WeatherDisplay:10.37,2013-06-10 15:11:00,
2013-06-10 10:12:00,62.0,62.0,30.05,SSW,202,2.3,6.0,100,0.00,OVC,,0.00,WeatherDisplay:10.37,2013-06-10 15:12:00,
2013-06-10 10:13:00,62.0,62.0,30.04,SSE,157,5.1,5.8,100,0.00,OVC,,0.00,WeatherDisplay:10.37,2013-06-10 15:13:00,
2013-06-10 10:16:00,62.0,62.0,30.04,SSE,157,0.0,3.5,100,0.00,OVC,,0.00,WeatherDisplay:10.37,2013-06-10 15:16:00,
2013-06-10 10:17:00,62.0,62.0,30.04,SSE,157,0.6,1.2,100,0.00,OVC,,0.00,WeatherDisplay:10.37,2013-06-10 15:17:00,
2013-06-10 10:18:00,63.0,63.0,30.04,SE,135,2.0,4.0,100,0.00,OVC,,0.00,WeatherDisplay:10.37,2013-06-10 15:18:00,
2013-06-10 10:21:00,63.0,63.0,30.04,SE,135,0.1,1.2,100,0.00,OVC,,0.00,WeatherDisplay:10.37,2013-06-10 15:21:00,
2013-06-10 10:22:00,63.0,63.0,30.03,ESE,112,1.0,2.0,100,0.00,OVC,,0.00,WeatherDisplay:10.37,2013-06-10 15:22:00,
2013-06-10 10:24:00,63.0,63.0,30.03,ENE,67,3.5,4.0,100,0.00,OVC,,0.00,WeatherDisplay:10.37,2013-06-10 15:24:00,
2013-06-10 10:26:00,63.0,63.0,30.03,SE,135,0.6,3.0,100,0.00,OVC,,0.00,WeatherDisplay:10.37,2013-06-10 15:26:00,
2013-06-10 10:28:00,63.0,63.0,30.03,SSW,202,3.8,4.6,100,0.00,OVC,,0.00,WeatherDisplay:10.37,2013-06-10 15:28:00,
2013-06-10 10:29:00,63.0,63.0,30.03,SSW,202,3.5,4.6,100,0.00,OVC,,0.00,WeatherDisplay:10.37,2013-06-10 15:29:00,
2013-06-10 10:32:00,63.0,63.0,30.03,East,90,0.6,3.5,100,0.00,OVC,,0.00,WeatherDisplay:10.37,2013-06-10 15:32:00,
2013-06-10 10:33:00,63.0,63.0,30.03,SE,135,0.0,1.2,100,0.00,OVC,,0.00,WeatherDisplay:10.37,2013-06-10 15:33:00,
2013-06-10 10:34:00,63.0,63.0,30.03,SE,135,0.7,3.5,100,0.00,OVC,,0.00,WeatherDisplay:10.37,2013-06-10 15:34:00,
2013-06-10 10:37:00,63.0,63.0,30.03,ESE,112,1.4,3.5,100,0.00,OVC,,0.00,WeatherDisplay:10.37,2013-06-10 15:37:00,
2013-06-10 10:38:00,63.0,63.0,30.03,East,90,2.8,4.0,100,0.00,OVC,,0.00,WeatherDisplay:10.37,2013-06-10 15:38:00,
2013-06-10 10:39:00,63.0,63.0,30.03,East,90,3.0,3.5,100,0.00,OVC,,0.00,WeatherDisplay:10.37,2013-06-10 15:39:00,
2013-06-10 10:42:00,63.0,63.0,30.03,WSW,247,4.7,8.1,100,0.00,OVC,,0.00,WeatherDisplay:10.37,2013-06-10 15:42:00,
2013-06-10 10:43:00,63.0,63.0,30.03,WSW,247,4.0,6.9,100,0.00,OVC,,0.00,WeatherDisplay:10.37,2013-06-10 15:43:00,
2013-06-10 10:44:00,63.0,63.0,30.03,WSW,247,3.0,6.9,100,0.00,OVC,,0.00,WeatherDisplay:10.37,2013-06-10 15:44:00,
2013-06-10 10:45:00,63.0,63.0,30.03,WSW,247,2.6,4.0,100,0.00,OVC,,0.00,WeatherDisplay:10.37,2013-06-10 15:45:00,
2013-06-10 10:47:00,63.0,63.0,30.03,ESE,112,3.7,5.8,100,0.00,OVC,,0.00,WeatherDisplay:10.37,2013-06-10 15:47:00,
2013-06-10 10:49:00,63.0,63.0,30.03,SSE,157,2.5,5.8,100,0.00,OVC,,0.00,WeatherDisplay:10.37,2013-06-10 15:49:00,
2013-06-10 10:50:00,63.0,63.0,30.03,ESE,112,2.6,5.8,100,0.00,OVC,,0.00,WeatherDisplay:10.37,2013-06-10 15:50:00,
2013-06-10 10:53:00,63.0,63.0,30.04,South,180,1.6,6.9,100,0.00,OVC,,0.00,WeatherDisplay:10.37,2013-06-10 15:53:00,
2013-06-10 10:54:00,63.0,62.7,30.04,ESE,112,3.9,6.9,99,0.00,OVC,,0.00,WeatherDisplay:10.37,2013-06-10 15:54:00,
2013-06-10 10:55:00,63.0,63.0,30.04,East,90,2.9,5.8,100,0.00,OVC,,0.00,WeatherDisplay:10.37,2013-06-10 15:55:00,
2013-06-10 10:58:00,63.0,63.0,30.04,ESE,112,2.5,4.6,100,0.00,OVC,,0.00,WeatherDisplay:10.37,2013-06-10 15:58:00,
2013-06-10 10:59:00,63.0,63.0,30.04,SSW,202,2.0,5.8,100,0.00,OVC,,0.00,WeatherDisplay:10.37,2013-06-10 15:59:00,
2013-06-10 11:00:00,63.0,63.0,30.04,WSW,247,3.2,5.8,100,0.00,OVC,,0.00,WeatherDisplay:10.37,2013-06-10 16:00:00,
2013-06-10 11:03:00,64.0,64.0,30.05,WSW,247,0.9,3.5,100,0.00,OVC,,0.00,WeatherDisplay:10.37,2013-06-10 16:03:00,
2013-06-10 11:04:00,64.0,64.0,30.05,WSW,247,1.9,3.5,100,0.00,OVC,,0.00,WeatherDisplay:10.37,2013-06-10 16:04:00,
2013-06-10 11:05:00,64.0,64.0,30.05,SE,135,0.3,3.5,100,0.00,OVC,,0.00,WeatherDisplay:10.37,2013-06-10 16:05:00,
2013-06-10 11:07:00,65.0,64.4,30.05,South,180,4.1,5.0,98,0.00,OVC,,0.00,WeatherDisplay:10.37,2013-06-10 16:07:00,
2013-06-10 11:09:00,65.0,64.4,30.05,SSE,157,1.7,3.5,98,0.00,OVC,,0.00,WeatherDisplay:10.37,2013-06-10 16:09:00,
2013-06-10 11:10:00,65.0,63.5,30.05,SSE,157,2.3,5.0,95,0.00,OVC,,0.00,WeatherDisplay:10.37,2013-06-10 16:10:00,
2013-06-10 11:11:00,65.0,63.5,30.05,SSE,157,2.5,4.0,95,0.00,OVC,,0.00,WeatherDisplay:10.37,2013-06-10 16:11:00,
2013-06-10 11:12:00,65.0,63.2,30.05,SE,135,3.6,4.6,94,0.00,OVC,,0.00,WeatherDisplay:10.37,2013-06-10 16:12:00,
2013-06-10 11:14:00,65.0,63.5,30.05,South,180,2.7,5.8,95,0.00,OVC,,0.00,WeatherDisplay:10.37,2013-06-10 16:14:00,
2013-06-10 11:15:00,65.0,62.3,30.05,SE,135,5.3,6.9,91,0.00,OVC,,0.00,WeatherDisplay:10.37,2013-06-10 16:15:00,
2013-06-10 11:16:00,65.0,62.0,30.05,SE,135,5.0,5.8,90,0.00,OVC,,0.00,WeatherDisplay:10.37,2013-06-10 16:16:00,
2013-06-10 11:17:00,65.0,62.6,30.05,SE,135,1.6,4.6,92,0.00,OVC,,0.00,WeatherDisplay:10.37,2013-06-10 16:17:00,
2013-06-10 11:18:00,65.0,62.9,30.05,SE,135,1.0,4.6,93,0.00,OVC,,0.00,WeatherDisplay:10.37,2013-06-10 16:18:00,
2013-06-10 11:19:00,65.0,62.0,30.05,ESE,112,4.0,5.8,90,0.00,OVC,,0.00,WeatherDisplay:10.37,2013-06-10 16:19:00,
2013-06-10 11:20:00,65.0,62.9,30.05,ESE,112,2.2,4.0,93,0.00,OVC,,0.00,WeatherDisplay:10.37,2013-06-10 16:20:00,
2013-06-10 11:22:00,65.0,62.3,30.05,ESE,112,3.7,4.6,91,0.00,OVC,,0.00,WeatherDisplay:10.37,2013-06-10 16:22:00,
2013-06-10 11:23:00,65.0,62.3,30.05,ESE,112,0.8,3.5,91,0.00,OVC,,0.00,WeatherDisplay:10.37,2013-06-10 16:23:00,
2013-06-10 11:24:00,65.0,62.6,30.05,SE,135,3.5,5.0,92,0.00,OVC,,0.00,WeatherDisplay:10.37,2013-06-10 16:24:00,
2013-06-10 11:25:00,65.0,62.3,30.05,South,180,0.7,5.8,91,0.00,OVC,,0.00,WeatherDisplay:10.37,2013-06-10 16:25:00,
2013-06-10 11:27:00,65.0,62.3,30.05,SSE,157,2.5,3.5,91,0.00,OVC,,0.00,WeatherDisplay:10.37,2013-06-10 16:27:00,
2013-06-10 11:28:00,65.0,62.3,30.05,SE,135,1.0,3.0,91,0.00,OVC,,0.00,WeatherDisplay:10.37,2013-06-10 16:28:00,
2013-06-10 11:30:00,65.0,61.4,30.05,SE,135,4.1,5.0,88,0.00,OVC,,0.00,WeatherDisplay:10.37,2013-06-10 16:30:00,
2013-06-10 11:32:00,65.0,62.0,30.05,SE,135,0.6,2.3,90,0.00,OVC,,0.00,WeatherDisplay:10.37,2013-06-10 16:32:00,
2013-06-10 11:33:00,66.0,62.7,30.05,SE,135,0.0,2.3,89,0.00,OVC,,0.00,WeatherDisplay:10.37,2013-06-10 16:33:00,
2013-06-10 11:35:00,66.0,63.0,30.05,SE,135,0.0,0.0,90,0.00,OVC,,0.00,WeatherDisplay:10.37,2013-06-10 16:35:00,
2013-06-10 11:36:00,66.0,62.3,30.05,WSW,247,1.3,5.0,88,0.00,OVC,,0.00,WeatherDisplay:10.37,2013-06-10 16:36:00,
2013-06-10 11:37:00,66.0,62.0,30.05,SSE,157,3.3,4.6,87,0.00,OVC,,0.00,WeatherDisplay:10.37,2013-06-10 16:37:00,
2013-06-10 11:38:00,66.0,62.0,30.05,SSE,157,2.9,6.9,87,0.00,OVC,,0.00,WeatherDisplay:10.37,2013-06-10 16:38:00,
2013-06-10 11:40:00,66.0,62.0,30.05,SSW,202,2.3,4.6,87,0.00,OVC,,0.00,WeatherDisplay:10.37,2013-06-10 16:40:00,
2013-06-10 11:42:00,66.0,61.7,30.05,West,270,0.8,3.5,86,0.00,OVC,,0.00,WeatherDisplay:10.37,2013-06-10 16:42:00,
2013-06-10 11:43:00,66.0,61.4,30.05,West,270,2.0,3.5,85,0.00,OVC,,0.00,WeatherDisplay:10.37,2013-06-10 16:43:00,
2013-06-10 11:45:00,67.0,63.0,30.05,ENE,67,0.0,0.0,87,0.00,OVC,,0.00,WeatherDisplay:10.37,2013-06-10 16:45:00,
2013-06-10 11:47:00,67.0,63.0,30.05,ENE,67,0.0,3.5,87,0.00,OVC,,0.00,WeatherDisplay:10.37,2013-06-10 16:47:00,
2013-06-10 11:48:00,67.0,63.0,30.05,ENE,67,0.0,0.0,87,0.00,OVC,,0.00,WeatherDisplay:10.37,2013-06-10 16:48:00,
2013-06-10 11:50:00,68.0,63.7,30.05,ENE,67,0.0,0.0,86,0.00,OVC,,0.00,WeatherDisplay:10.37,2013-06-10 16:50:00,
2013-06-10 11:52:00,69.0,62.9,30.03,East,90,0.2,2.3,81,0.00,OVC,,0.00,WeatherDisplay:10.37,2013-06-10 16:52:00,
2013-06-10 11:53:00,69.0,62.9,30.03,SE,135,1.0,5.0,81,0.00,OVC,,0.00,WeatherDisplay:10.37,2013-06-10 16:53:00,
2013-06-10 11:54:00,69.0,62.2,30.03,SE,135,5.0,8.1,79,0.00,OVC,,0.00,WeatherDisplay:10.37,2013-06-10 16:54:00,
2013-06-10 11:55:00,69.0,62.6,30.03,ESE,112,0.6,4.0,80,0.00,OVC,,0.00,WeatherDisplay:10.37,2013-06-10 16:55:00,
2013-06-10 11:58:00,68.0,60.5,30.03,ESE,112,6.8,9.2,77,0.00,OVC,,0.00,WeatherDisplay:10.37,2013-06-10 16:58:00,
2013-06-10 11:59:00,68.0,61.2,30.03,ESE,112,0.9,4.6,79,0.00,OVC,,0.00,WeatherDisplay:10.37,2013-06-10 16:59:00,
2013-06-10 12:00:00,68.0,61.6,30.03,NNE,22,1.2,3.5,80,0.00,OVC,,0.00,WeatherDisplay:10.37,2013-06-10 17:00:00,
2013-06-10 12:03:00,69.0,62.9,30.01,South,180,2.1,4.6,81,0.00,OVC,,0.00,WeatherDisplay:10.37,2013-06-10 17:03:00,
2013-06-10 12:04:00,69.0,62.6,30.01,East,90,3.0,4.0,80,0.00,OVC,,0.00,WeatherDisplay:10.37,2013-06-10 17:04:00,
2013-06-10 12:05:00,70.0,63.5,30.01,East,90,0.3,4.6,80,0.00,OVC,,0.00,WeatherDisplay:10.37,2013-06-10 17:05:00,
2013-06-10 12:08:00,71.0,63.8,30.01,ENE,67,1.1,4.6,78,0.00,OVC,,0.00,WeatherDisplay:10.37,2013-06-10 17:08:00,
2013-06-10 12:09:00,71.0,63.4,30.01,East,90,0.3,2.3,77,0.00,OVC,,0.00,WeatherDisplay:10.37,2013-06-10 17:09:00,
2013-06-10 12:10:00,72.0,63.6,30.01,SSW,202,0.0,2.3,75,0.00,OVC,,0.00,WeatherDisplay:10.37,2013-06-10 17:10:00,
2013-06-10 12:13:00,72.0,61.7,30.00,ESE,112,5.0,6.9,70,0.00,OVC,,0.00,WeatherDisplay:10.37,2013-06-10 17:13:00,
2013-06-10 12:14:00,72.0,61.7,30.00,ESE,112,4.9,6.9,70,0.00,OVC,,0.00,WeatherDisplay:10.37,2013-06-10 17:14:00,
2013-06-10 12:15:00,72.0,62.1,30.00,East,90,2.2,3.5,71,0.00,OVC,,0.00,WeatherDisplay:10.37,2013-06-10 17:15:00,
2013-06-10 12:16:00,72.0,62.1,30.00,East,90,0.6,2.3,71,0.00,OVC,,0.00,WeatherDisplay:10.37,2013-06-10 17:16:00,
2013-06-10 12:19:00,73.0,61.8,30.00,SSE,157,2.7,4.6,68,0.00,OVC,,0.00,WeatherDisplay:10.37,2013-06-10 17:19:00,
2013-06-10 12:20:00,73.0,62.6,30.00,ESE,112,1.5,3.5,70,0.00,OVC,,0.00,WeatherDisplay:10.37,2013-06-10 17:20:00,
2013-06-10 12:21:00,73.0,62.6,30.00,ESE,112,1.3,3.5,70,0.00,OVC,,0.00,WeatherDisplay:10.37,2013-06-10 17:21:00,
2013-06-10 12:24:00,73.0,62.2,29.99,NNE,22,4.6,5.8,69,0.00,OVC,,0.00,WeatherDisplay:10.37,2013-06-10 17:24:00,
2013-06-10 12:25:00,73.0,61.8,29.99,SE,135,4.7,5.8,68,0.00,OVC,,0.00,WeatherDisplay:10.37,2013-06-10 17:25:00,
2013-06-10 12:26:00,74.0,63.2,29.99,SE,135,0.6,5.8,69,0.00,OVC,,0.00,WeatherDisplay:10.37,2013-06-10 17:26:00,
2013-06-10 12:29:00,73.0,61.8,29.99,SSE,157,3.8,5.0,68,0.00,OVC,,0.00,WeatherDisplay:10.37,2013-06-10 17:29:00,
2013-06-10 12:30:00,73.0,61.8,29.99,East,90,3.0,6.9,68,0.00,OVC,,0.00,WeatherDisplay:10.37,2013-06-10 17:30:00,
2013-06-10 12:32:00,73.0,61.8,29.99,ESE,112,2.1,7.0,68,0.00,OVC,,0.00,WeatherDisplay:10.37,2013-06-10 17:32:00,
2013-06-10 12:34:00,73.0,62.2,29.98,SSE,157,1.2,8.1,69,0.00,OVC,,0.00,WeatherDisplay:10.37,2013-06-10 17:34:00,
2013-06-10 12:35:00,73.0,62.6,29.98,South,180,0.5,3.5,70,0.00,OVC,,0.00,WeatherDisplay:10.37,2013-06-10 17:35:00,
2013-06-10 12:37:00,73.0,62.6,29.98,ESE,112,3.8,5.0,70,0.00,OVC,,0.00,WeatherDisplay:10.37,2013-06-10 17:37:00,
2013-06-10 12:39:00,72.0,62.1,29.98,East,90,1.4,5.8,71,0.00,OVC,,0.00,WeatherDisplay:10.37,2013-06-10 17:39:00,
2013-06-10 12:40:00,73.0,63.4,29.98,ESE,112,1.7,3.5,72,0.00,OVC,,0.00,WeatherDisplay:10.37,2013-06-10 17:40:00,
2013-06-10 12:41:00,73.0,62.6,29.98,West,270,2.2,7.0,70,0.00,OVC,,0.00,WeatherDisplay:10.37,2013-06-10 17:41:00,
2013-06-10 12:42:00,73.0,62.6,29.98,WSW,247,4.4,8.1,70,0.00,OVC,,0.00,WeatherDisplay:10.37,2013-06-10 17:42:00,
2013-06-10 12:44:00,73.0,62.6,29.99,WSW,247,2.9,5.8,70,0.00,OVC,,0.00,WeatherDisplay:10.37,2013-06-10 17:44:00,
2013-06-10 12:45:00,73.0,62.6,29.99,SSE,157,2.6,5.8,70,0.00,OVC,,0.00,WeatherDisplay:10.37,2013-06-10 17:45:00,
2013-06-10 12:46:00,73.0,62.6,29.99,South,180,3.8,4.6,70,0.00,OVC,,0.00,WeatherDisplay:10.37,2013-06-10 17:46:00,
2013-06-10 12:47:00,73.0,62.6,29.99,West,270,3.7,4.0,70,0.00,OVC,,0.00,WeatherDisplay:10.37,2013-06-10 17:47:00,
2013-06-10 12:50:00,73.0,62.2,29.99,SE,135,6.2,9.2,69,0.00,OVC,,0.00,WeatherDisplay:10.37,2013-06-10 17:50:00,
2013-06-10 12:51:00,73.0,62.6,29.99,SSE,157,3.7,5.8,70,0.00,OVC,,0.00,WeatherDisplay:10.37,2013-06-10 17:51:00,
2013-06-10 12:52:00,73.0,62.2,29.99,SSW,202,4.5,5.8,69,0.00,OVC,,0.00,WeatherDisplay:10.37,2013-06-10 17:52:00,
2013-06-10 12:55:00,72.0,62.1,29.99,ESE,112,4.4,10.4,71,0.00,OVC,,0.00,WeatherDisplay:10.37,2013-06-10 17:55:00,
2013-06-10 12:56:00,72.0,62.5,29.99,East,90,0.2,2.3,72,0.00,OVC,,0.00,WeatherDisplay:10.37,2013-06-10 17:56:00,
2013-06-10 12:57:00,72.0,62.5,29.99,WNW,292,2.3,3.5,72,0.00,OVC,,0.00,WeatherDisplay:10.37,2013-06-10 17:57:00,
2013-06-10 12:58:00,73.0,63.8,29.99,WSW,247,1.0,3.5,73,0.00,OVC,,0.00,WeatherDisplay:10.37,2013-06-10 17:58:00,
2013-06-10 13:00:00,73.0,61.0,29.99,SSW,202,5.8,8.1,66,0.00,OVC,,0.00,WeatherDisplay:10.37,2013-06-10 18:00:00,
2013-06-10 13:01:00,73.0,61.4,29.99,East,90,4.2,6.9,67,0.00,OVC,,0.00,WeatherDisplay:10.37,2013-06-10 18:01:00,
2013-06-10 13:02:00,73.0,61.0,29.99,SE,135,2.8,4.6,66,0.00,OVC,,0.00,WeatherDisplay:10.37,2013-06-10 18:02:00,
2013-06-10 13:03:00,74.0,61.9,29.98,East,90,2.3,6.0,66,0.00,OVC,,0.00,WeatherDisplay:10.37,2013-06-10 18:03:00,
2013-06-10 13:05:00,73.0,61.0,29.98,South,180,5.6,10.4,66,0.00,OVC,,0.00,WeatherDisplay:10.37,2013-06-10 18:05:00,
2013-06-10 13:07:00,73.0,61.8,29.98,ESE,112,2.8,5.8,68,0.00,OVC,,0.00,WeatherDisplay:10.37,2013-06-10 18:07:00,
2013-06-10 13:08:00,73.0,61.8,29.98,SE,135,2.3,6.0,68,0.00,OVC,,0.00,WeatherDisplay:10.37,2013-06-10 18:08:00,
2013-06-10 13:10:00,73.0,63.0,29.98,SW,225,2.0,3.5,71,0.00,OVC,,0.00,WeatherDisplay:10.37,2013-06-10 18:10:00,
2013-06-10 13:12:00,73.0,63.0,29.98,NNW,337,3.8,6.9,71,0.00,OVC,,0.00,WeatherDisplay:10.37,2013-06-10 18:12:00,
2013-06-10 13:13:00,74.0,63.6,29.98,NE,45,4.9,6.0,70,0.00,OVC,,0.00,WeatherDisplay:10.37,2013-06-10 18:13:00,
2013-06-10 13:14:00,74.0,63.6,29.98,ESE,112,4.8,7.0,70,0.00,OVC,,0.00,WeatherDisplay:10.37,2013-06-10 18:14:00,
2013-06-10 13:15:00,73.0,61.8,29.98,ENE,67,6.6,9.2,68,0.00,OVC,,0.00,WeatherDisplay:10.37,2013-06-10 18:15:00,
2013-06-10 13:17:00,73.0,61.8,29.98,ESE,112,2.5,5.8,68,0.00,OVC,,0.00,WeatherDisplay:10.37,2013-06-10 18:17:00,
2013-06-10 13:18:00,73.0,61.8,29.98,East,90,3.0,6.0,68,0.00,OVC,,0.00,WeatherDisplay:10.37,2013-06-10 18:18:00,
2013-06-10 13:19:00,73.0,61.8,29.98,ESE,112,4.5,6.9,68,0.00,OVC,,0.00,WeatherDisplay:10.37,2013-06-10 18:19:00,
2013-06-10 13:21:00,73.0,62.6,29.98,East,90,5.4,5.8,70,0.00,OVC,,0.00,WeatherDisplay:10.37,2013-06-10 18:21:00,
2013-06-10 13:22:00,73.0,61.8,29.98,ESE,112,4.6,5.8,68,0.00,OVC,,0.00,WeatherDisplay:10.37,2013-06-10 18:22:00,
2013-06-10 13:23:00,73.0,61.8,29.98,ESE,112,4.1,4.6,68,0.00,OVC,,0.00,WeatherDisplay:10.37,2013-06-10 18:23:00,
2013-06-10 13:24:00,73.0,61.0,29.98,SE,135,3.8,4.6,66,0.00,OVC,,0.00,WeatherDisplay:10.37,2013-06-10 18:24:00,
2013-06-10 13:26:00,73.0,61.8,29.98,ESE,112,1.1,3.5,68,0.00,OVC,,0.00,WeatherDisplay:10.37,2013-06-10 18:26:00,
2013-06-10 13:28:00,74.0,62.8,29.98,SSE,157,2.3,5.8,68,0.00,OVC,,0.00,WeatherDisplay:10.37,2013-06-10 18:28:00,
2013-06-10 13:29:00,74.0,61.9,29.98,SE,135,5.8,6.9,66,0.00,OVC,,0.00,WeatherDisplay:10.37,2013-06-10 18:29:00,
2013-06-10 13:30:00,74.0,62.3,29.98,SSW,202,4.1,6.9,67,0.00,OVC,,0.00,WeatherDisplay:10.37,2013-06-10 18:30:00,
2013-06-10 13:31:00,74.0,62.8,29.98,ESE,112,2.7,3.5,68,0.00,OVC,,0.00,WeatherDisplay:10.37,2013-06-10 18:31:00,
2013-06-10 13:33:00,74.0,61.5,29.97,ESE,112,5.9,8.1,65,0.00,OVC,,0.00,WeatherDisplay:10.37,2013-06-10 18:33:00,
2013-06-10 13:34:00,74.0,62.3,29.97,ESE,112,1.4,6.9,67,0.00,OVC,,0.00,WeatherDisplay:10.37,2013-06-10 18:34:00,
2013-06-10 13:35:00,74.0,62.8,29.97,ENE,67,1.6,4.0,68,0.00,OVC,,0.00,WeatherDisplay:10.37,2013-06-10 18:35:00,
2013-06-10 13:37:00,74.0,62.8,29.97,SE,135,1.7,3.5,68,0.00,OVC,,0.00,WeatherDisplay:10.37,2013-06-10 18:37:00,
2013-06-10 13:38:00,74.0,62.8,29.97,NNE,22,2.2,4.0,68,0.00,OVC,,0.00,WeatherDisplay:10.37,2013-06-10 18:38:00,
2013-06-10 13:39:00,75.0,62.9,29.97,ESE,112,7.0,7.0,66,0.00,OVC,,0.00,WeatherDisplay:10.37,2013-06-10 18:39:00,
2013-06-10 13:41:00,75.0,62.9,29.97,SSE,157,4.6,11.5,66,0.00,OVC,,0.00,WeatherDisplay:10.37,2013-06-10 18:41:00,
2013-06-10 13:42:00,75.0,62.4,29.97,East,90,6.9,9.2,65,0.00,OVC,,0.00,WeatherDisplay:10.37,2013-06-10 18:42:00,
2013-06-10 13:43:00,75.0,62.4,29.97,ESE,112,6.3,9.2,65,0.00,OVC,,0.00,WeatherDisplay:10.37,2013-06-10 18:43:00,
2013-06-10 13:44:00,74.0,61.9,29.97,East,90,4.6,6.9,66,0.00,OVC,,0.00,WeatherDisplay:10.37,2013-06-10 18:44:00,
2013-06-10 13:45:00,74.0,62.8,29.97,ESE,112,5.7,8.1,68,0.00,OVC,,0.00,WeatherDisplay:10.37,2013-06-10 18:45:00,
2013-06-10 13:46:00,74.0,62.3,29.97,SSW,202,3.7,8.1,67,0.00,OVC,,0.00,WeatherDisplay:10.37,2013-06-10 18:46:00,
2013-06-10 13:48:00,74.0,61.9,29.97,South,180,4.6,8.1,66,0.00,OVC,,0.00,WeatherDisplay:10.37,2013-06-10 18:48:00,
2013-06-10 13:49:00,74.0,62.3,29.97,SE,135,2.3,8.1,67,0.00,OVC,,0.00,WeatherDisplay:10.37,2013-06-10 18:49:00,
2013-06-10 13:50:00,74.0,62.3,29.97,East,90,2.5,4.6,67,0.00,OVC,,0.00,WeatherDisplay:10.37,2013-06-10 18:50:00,
2013-06-10 13:53:00,75.0,62.4,29.97,ESE,112,5.3,8.1,65,0.00,OVC,,0.00,WeatherDisplay:10.37,2013-06-10 18:53:00,
2013-06-10 13:55:00,75.0,62.9,29.97,East,90,1.9,5.8,66,0.00,OVC,,0.00,WeatherDisplay:10.37,2013-06-10 18:55:00,
2013-06-10 13:56:00,75.0,62.0,29.97,East,90,5.0,6.0,64,0.00,OVC,,0.00,WeatherDisplay:10.37,2013-06-10 18:56:00,
2013-06-10 13:58:00,75.0,61.1,29.97,ESE,112,4.7,10.4,62,0.00,OVC,,0.00,WeatherDisplay:10.37,2013-06-10 18:58:00,
2013-06-10 14:00:00,75.0,61.5,29.97,SSE,157,5.3,9.2,63,0.00,OVC,,0.00,WeatherDisplay:10.37,2013-06-10 19:00:00,
2013-06-10 14:02:00,74.0,61.5,29.97,SE,135,1.4,4.6,65,0.00,OVC,,0.00,WeatherDisplay:10.37,2013-06-10 19:02:00,
2013-06-10 14:03:00,75.0,62.4,29.97,ENE,67,3.1,7.0,65,0.00,OVC,,0.00,WeatherDisplay:10.37,2013-06-10 19:03:00,
2013-06-10 14:04:00,75.0,62.4,29.97,ESE,112,3.7,6.0,65,0.00,OVC,,0.00,WeatherDisplay:10.37,2013-06-10 19:04:00,
2013-06-10 14:05:00,75.0,62.9,29.97,South,180,4.8,6.9,66,0.00,OVC,,0.00,WeatherDisplay:10.37,2013-06-10 19:05:00,
2013-06-10 14:07:00,75.0,61.5,29.97,SSW,202,4.6,7.0,63,0.00,OVC,,0.00,WeatherDisplay:10.37,2013-06-10 19:07:00,
2013-06-10 14:08:00,75.0,62.0,29.97,SSW,202,1.8,6.9,64,0.00,OVC,,0.00,WeatherDisplay:10.37,2013-06-10 19:08:00,
2013-06-10 14:09:00,75.0,62.0,29.97,SSW,202,0.3,5.8,64,0.00,OVC,,0.00,WeatherDisplay:10.37,2013-06-10 19:09:00,
2013-06-10 14:10:00,75.0,62.4,29.97,SSE,157,2.1,3.5,65,0.00,OVC,,0.00,WeatherDisplay:10.37,2013-06-10 19:10:00,
2013-06-10 14:12:00,75.0,62.9,29.97,SE,135,2.9,4.6,66,0.00,OVC,,0.00,WeatherDisplay:10.37,2013-06-10 19:12:00,
2013-06-10 14:13:00,76.0,63.8,29.95,SSE,157,3.1,4.6,66,0.00,OVC,,0.00,WeatherDisplay:10.37,2013-06-10 19:13:00,
2013-06-10 14:14:00,76.0,63.8,29.95,SSE,157,2.2,5.8,66,0.00,OVC,,0.00,WeatherDisplay:10.37,2013-06-10 19:14:00,
2013-06-10 14:15:00,76.0,62.5,29.95,West,270,1.3,4.6,63,0.00,OVC,,0.00,WeatherDisplay:10.37,2013-06-10 19:15:00,
2013-06-10 14:17:00,77.0,63.9,29.95,SSW,202,1.4,3.5,64,0.00,OVC,,0.00,WeatherDisplay:10.37,2013-06-10 19:17:00,
2013-06-10 14:19:00,77.0,64.3,29.95,SSW,202,2.4,3.5,65,0.00,OVC,,0.00,WeatherDisplay:10.37,2013-06-10 19:19:00,
2013-06-10 14:20:00,77.0,63.9,29.95,ENE,67,2.1,5.8,64,0.00,OVC,,0.00,WeatherDisplay:10.37,2013-06-10 19:20:00,
2013-06-10 14:21:00,77.0,62.5,29.95,SE,135,4.4,8.1,61,0.00,OVC,,0.00,WeatherDisplay:10.37,2013-06-10 19:21:00,
2013-06-10 14:22:00,77.0,63.0,29.95,ENE,67,8.0,10.4,62,0.00,OVC,,0.00,WeatherDisplay:10.37,2013-06-10 19:22:00,
2013-06-10 14:24:00,76.0,62.9,29.95,ESE,112,4.9,8.1,64,0.00,OVC,,0.00,WeatherDisplay:10.37,2013-06-10 19:24:00,
2013-06-10 14:25:00,76.0,62.9,29.95,ESE,112,2.0,5.8,64,0.00,OVC,,0.00,WeatherDisplay:10.37,2013-06-10 19:25:00,
2013-06-10 14:26:00,76.0,62.9,29.95,ENE,67,1.6,4.6,64,0.00,OVC,,0.00,WeatherDisplay:10.37,2013-06-10 19:26:00,
2013-06-10 14:28:00,76.0,61.1,29.95,South,180,5.1,9.2,60,0.00,OVC,,0.00,WeatherDisplay:10.37,2013-06-10 19:28:00,
2013-06-10 14:29:00,76.0,62.0,29.95,South,180,0.3,5.8,62,0.00,OVC,,0.00,WeatherDisplay:10.37,2013-06-10 19:29:00,
2013-06-10 14:30:00,76.0,62.9,29.95,ESE,112,2.2,5.8,64,0.00,OVC,,0.00,WeatherDisplay:10.37,2013-06-10 19:30:00,
2013-06-10 14:31:00,76.0,62.0,29.95,South,180,6.4,10.4,62,0.00,OVC,,0.00,WeatherDisplay:10.37,2013-06-10 19:31:00,
2013-06-10 14:33:00,76.0,62.0,29.94,WNW,292,2.9,6.9,62,0.00,OVC,,0.00,WeatherDisplay:10.37,2013-06-10 19:33:00,
2013-06-10 14:34:00,76.0,62.0,29.94,ESE,112,5.4,8.1,62,0.00,OVC,,0.00,WeatherDisplay:10.37,2013-06-10 19:34:00,
2013-06-10 14:35:00,76.0,62.0,29.94,South,180,3.5,6.9,62,0.00,OVC,,0.00,WeatherDisplay:10.37,2013-06-10 19:35:00,
2013-06-10 14:37:00,76.0,62.0,29.94,SE,135,4.5,5.8,62,0.00,OVC,,0.00,WeatherDisplay:10.37,2013-06-10 19:37:00,
2013-06-10 14:38:00,76.0,62.0,29.94,ESE,112,3.5,5.8,62,0.00,OVC,,0.00,WeatherDisplay:10.37,2013-06-10 19:38:00,
2013-06-10 14:40:00,76.0,62.0,29.94,East,90,2.2,3.5,62,0.00,OVC,,0.00,WeatherDisplay:10.37,2013-06-10 19:40:00,
2013-06-10 14:42:00,77.0,62.0,29.94,ENE,67,5.6,7.0,60,0.00,OVC,,0.00,WeatherDisplay:10.37,2013-06-10 19:42:00,
2013-06-10 14:43:00,77.0,62.0,29.94,ENE,67,5.7,9.2,60,0.00,OVC,,0.00,WeatherDisplay:10.37,2013-06-10 19:43:00,
2013-06-10 14:45:00,77.0,63.0,29.94,SSE,157,1.9,9.2,62,0.00,OVC,,0.00,WeatherDisplay:10.37,2013-06-10 19:45:00,
2013-06-10 14:46:00,77.0,63.9,29.94,South,180,1.7,9.2,64,0.00,OVC,,0.00,WeatherDisplay:10.37,2013-06-10 19:46:00,
2013-06-10 14:48:00,77.0,63.0,29.94,SE,135,4.7,5.8,62,0.00,OVC,,0.00,WeatherDisplay:10.37,2013-06-10 19:48:00,
2013-06-10 14:51:00,77.0,63.0,29.94,ESE,112,3.9,5.8,62,0.00,OVC,,0.00,WeatherDisplay:10.37,2013-06-10 19:51:00,
2013-06-10 14:52:00,77.0,63.0,29.94,ESE,112,5.4,9.2,62,0.00,OVC,,0.00,WeatherDisplay:10.37,2013-06-10 19:52:00,
2013-06-10 14:53:00,77.0,63.0,29.93,ESE,112,4.1,11.5,62,0.00,OVC,,0.00,WeatherDisplay:10.37,2013-06-10 19:53:00,
2013-06-10 14:54:00,76.0,62.5,29.93,SSE,157,3.8,7.0,63,0.00,OVC,,0.00,WeatherDisplay:10.37,2013-06-10 19:54:00,
2013-06-10 14:56:00,76.0,63.4,29.93,ESE,112,4.7,8.1,65,0.00,OVC,,0.00,WeatherDisplay:10.37,2013-06-10 19:56:00,
2013-06-10 14:57:00,76.0,63.8,29.93,East,90,3.5,5.0,66,0.00,OVC,,0.00,WeatherDisplay:10.37,2013-06-10 19:57:00,
2013-06-10 14:58:00,77.0,64.8,29.93,East,90,0.5,4.6,66,0.00,OVC,,0.00,WeatherDisplay:10.37,2013-06-10 19:58:00,
2013-06-10 14:59:00,77.0,64.8,29.93,East,90,1.7,4.0,66,0.00,OVC,,0.00,WeatherDisplay:10.37,2013-06-10 19:59:00,
2013-06-10 15:01:00,77.0,62.0,29.93,East,90,4.4,8.1,60,0.00,OVC,,0.00,WeatherDisplay:10.37,2013-06-10 20:01:00,
2013-06-10 15:02:00,77.0,61.6,29.93,ESE,112,3.8,8.1,59,0.00,OVC,,0.00,WeatherDisplay:10.37,2013-06-10 20:02:00,
2013-06-10 15:04:00,78.0,63.0,29.93,South,180,0.6,3.5,60,0.00,OVC,,0.00,WeatherDisplay:10.37,2013-06-10 20:04:00,
2013-06-10 15:06:00,78.0,60.0,29.93,South,180,6.3,10.4,54,0.00,OVC,,0.00,WeatherDisplay:10.37,2013-06-10 20:06:00,
2013-06-10 15:07:00,78.0,62.0,29.93,SE,135,4.6,10.4,58,0.00,OVC,,0.00,WeatherDisplay:10.37,2013-06-10 20:07:00,
2013-06-10 15:09:00,77.0,61.1,29.93,SSW,202,1.9,5.8,58,0.00,OVC,,0.00,WeatherDisplay:10.37,2013-06-10 20:09:00,
2013-06-10 15:12:00,77.0,63.0,29.93,ESE,112,5.9,9.2,62,0.00,OVC,,0.00,WeatherDisplay:10.37,2013-06-10 20:12:00,
2013-06-10 15:13:00,77.0,60.6,29.93,East,90,6.5,10.0,57,0.00,OVC,,0.00,WeatherDisplay:10.37,2013-06-10 20:13:00,
2013-06-10 15:14:00,76.0,60.2,29.93,ESE,112,6.6,10.4,58,0.00,OVC,,0.00,WeatherDisplay:10.37,2013-06-10 20:14:00,
2013-06-10 15:17:00,76.0,61.1,29.93,ESE,112,4.7,8.0,60,0.00,OVC,,0.00,WeatherDisplay:10.37,2013-06-10 20:17:00,
2013-06-10 15:18:00,76.0,61.1,29.93,ESE,112,5.3,8.1,60,0.00,OVC,,0.00,WeatherDisplay:10.37,2013-06-10 20:18:00,
2013-06-10 15:19:00,76.0,60.2,29.93,SSE,157,4.7,9.2,58,0.00,OVC,,0.00,WeatherDisplay:10.37,2013-06-10 20:19:00,
2013-06-10 15:22:00,76.0,61.1,29.93,SE,135,5.2,9.2,60,0.00,OVC,,0.00,WeatherDisplay:10.37,2013-06-10 20:22:00,
2013-06-10 15:23:00,76.0,61.1,29.93,SE,135,3.9,6.9,60,0.00,OVC,,0.00,WeatherDisplay:10.37,2013-06-10 20:23:00,
2013-06-10 15:24:00,76.0,61.6,29.93,East,90,4.8,7.0,61,0.00,OVC,,0.00,WeatherDisplay:10.37,2013-06-10 20:24:00,
2013-06-10 15:25:00,76.0,60.2,29.93,SE,135,5.2,6.9,58,0.00,OVC,,0.00,WeatherDisplay:10.37,2013-06-10 20:25:00,
2013-06-10 15:27:00,76.0,61.1,29.93,East,90,4.0,6.9,60,0.00,OVC,,0.00,WeatherDisplay:10.37,2013-06-10 20:27:00,
2013-06-10 15:28:00,76.0,61.1,29.93,ESE,112,2.9,5.8,60,0.00,OVC,,0.00,WeatherDisplay:10.37,2013-06-10 20:28:00,
2013-06-10 15:29:00,77.0,63.4,29.93,SSE,157,2.9,3.5,63,0.00,OVC,,0.00,WeatherDisplay:10.37,2013-06-10 20:29:00,
2013-06-10 15:30:00,77.0,63.4,29.93,SE,135,2.8,4.6,63,0.00,OVC,,0.00,WeatherDisplay:10.37,2013-06-10 20:30:00,
2013-06-10 15:32:00,77.0,61.1,29.92,ESE,112,9.8,10.4,58,0.00,OVC,,0.00,WeatherDisplay:10.37,2013-06-10 20:32:00,
2013-06-10 15:33:00,77.0,61.1,29.92,ESE,112,8.7,12.7,58,0.00,OVC,,0.00,WeatherDisplay:10.37,2013-06-10 20:33:00,
2013-06-10 15:35:00,76.0,61.6,29.92,ESE,112,3.3,5.8,61,0.00,OVC,,0.00,WeatherDisplay:10.37,2013-06-10 20:35:00,
2013-06-10 15:38:00,76.0,63.4,29.92,ESE,112,3.4,9.2,65,0.00,OVC,,0.00,WeatherDisplay:10.37,2013-06-10 20:38:00,
2013-06-10 15:39:00,77.0,64.3,29.92,ENE,67,2.0,9.2,65,0.00,OVC,,0.00,WeatherDisplay:10.37,2013-06-10 20:39:00,
2013-06-10 15:40:00,77.0,63.0,29.92,East,90,6.3,12.0,62,0.00,OVC,,0.00,WeatherDisplay:10.37,2013-06-10 20:40:00,
2013-06-10 15:43:00,77.0,63.9,29.92,SE,135,7.6,11.5,64,0.00,OVC,,0.00,WeatherDisplay:10.37,2013-06-10 20:43:00,
2013-06-10 15:44:00,76.0,62.9,29.92,ESE,112,6.6,11.5,64,0.00,OVC,,0.00,WeatherDisplay:10.37,2013-06-10 20:44:00,
2013-06-10 15:45:00,76.0,63.8,29.92,South,180,5.1,11.5,66,0.00,OVC,,0.00,WeatherDisplay:10.37,2013-06-10 20:45:00,
2013-06-10 15:48:00,76.0,64.2,29.92,SE,135,6.3,12.7,67,0.00,OVC,,0.00,WeatherDisplay:10.37,2013-06-10 20:48:00,
2013-06-10 15:49:00,76.0,64.2,29.92,ESE,112,4.7,6.9,67,0.00,OVC,,0.00,WeatherDisplay:10.37,2013-06-10 20:49:00,
2013-06-10 15:50:00,76.0,64.2,29.92,NNW,337,2.7,4.6,67,0.00,OVC,,0.00,WeatherDisplay:10.37,2013-06-10 20:50:00,
2013-06-10 15:53:00,77.0,64.8,29.92,ENE,67,4.1,6.9,66,0.00,OVC,,0.00,WeatherDisplay:10.37,2013-06-10 20:53:00,
2013-06-10 15:54:00,77.0,64.8,29.92,East,90,4.4,6.9,66,0.00,OVC,,0.00,WeatherDisplay:10.37,2013-06-10 20:54:00,
2013-06-10 15:55:00,77.0,64.3,29.92,ENE,67,4.8,9.2,65,0.00,OVC,,0.00,WeatherDisplay:10.37,2013-06-10 20:55:00,
2013-06-10 15:56:00,77.0,65.2,29.92,ESE,112,3.0,8.1,67,0.00,OVC,,0.00,WeatherDisplay:10.37,2013-06-10 20:56:00,
2013-06-10 15:58:00,77.0,63.0,29.92,ESE,112,7.8,10.4,62,0.00,OVC,,0.00,WeatherDisplay:10.37,2013-06-10 20:58:00,
2013-06-10 15:59:00,77.0,63.0,29.92,East,90,6.5,11.5,62,0.00,OVC,,0.00,WeatherDisplay:10.37,2013-06-10 20:59:00,
2013-06-10 16:00:00,77.0,63.9,29.92,ESE,112,4.7,4.7,64,0.00,OVC,,0.00,WeatherDisplay:10.37,2013-06-10 21:00:00,
2013-06-10 16:02:00,77.0,62.5,29.92,ENE,67,6.8,10.4,61,0.00,OVC,,0.00,WeatherDisplay:10.37,2013-06-10 21:02:00,
2013-06-10 16:04:00,77.0,63.4,29.92,ENE,67,4.8,6.9,63,0.00,OVC,,0.00,WeatherDisplay:10.37,2013-06-10 21:04:00,
2013-06-10 16:06:00,77.0,63.4,29.92,East,90,6.2,8.1,63,0.00,OVC,,0.00,WeatherDisplay:10.37,2013-06-10 21:06:00,
2013-06-10 16:08:00,77.0,63.0,29.92,ESE,112,7.1,10.4,62,0.00,OVC,,0.00,WeatherDisplay:10.37,2013-06-10 21:08:00,
2013-06-10 16:09:00,77.0,63.0,29.92,ESE,112,6.4,9.2,62,0.00,OVC,,0.00,WeatherDisplay:10.37,2013-06-10 21:09:00,
2013-06-10 16:12:00,77.0,63.9,29.92,East,90,7.1,10.4,64,0.00,OVC,,0.00,WeatherDisplay:10.37,2013-06-10 21:12:00,
2013-06-10 16:13:00,77.0,63.4,29.92,ESE,112,5.9,10.4,63,0.00,OVC,,0.00,WeatherDisplay:10.37,2013-06-10 21:13:00,
2013-06-10 16:14:00,77.0,63.4,29.92,ESE,112,5.5,10.4,63,0.00,OVC,,0.00,WeatherDisplay:10.37,2013-06-10 21:14:00,
2013-06-10 16:17:00,77.0,63.0,29.92,ESE,112,5.3,10.4,62,0.00,OVC,,0.00,WeatherDisplay:10.37,2013-06-10 21:17:00,
2013-06-10 16:18:00,77.0,63.4,29.92,South,180,4.0,9.2,63,0.00,OVC,,0.00,WeatherDisplay:10.37,2013-06-10 21:18:00,
2013-06-10 16:19:00,77.0,63.9,29.92,SW,225,4.9,7.0,64,0.00,OVC,,0.00,WeatherDisplay:10.37,2013-06-10 21:19:00,
2013-06-10 16:20:00,77.0,63.9,29.92,ENE,67,3.6,6.9,64,0.00,OVC,,0.00,WeatherDisplay:10.37,2013-06-10 21:20:00,
2013-06-10 16:22:00,77.0,63.0,29.91,East,90,3.4,6.9,62,0.00,OVC,,0.00,WeatherDisplay:10.37,2013-06-10 21:22:00,
2013-06-10 16:23:00,77.0,63.0,29.91,SE,135,4.7,5.8,62,0.00,OVC,,0.00,WeatherDisplay:10.37,2013-06-10 21:23:00,
2013-06-10 16:24:00,77.0,62.5,29.91,South,180,4.7,6.9,61,0.00,OVC,,0.00,WeatherDisplay:10.37,2013-06-10 21:24:00,
2013-06-10 16:25:00,77.0,62.5,29.91,South,180,5.1,6.9,61,0.00,OVC,,0.00,WeatherDisplay:10.37,2013-06-10 21:25:00,
2013-06-10 16:27:00,78.0,63.0,29.91,ESE,112,3.9,6.0,60,0.00,OVC,,0.00,WeatherDisplay:10.37,2013-06-10 21:27:00,
2013-06-10 16:28:00,78.0,63.0,29.91,SE,135,4.6,5.8,60,0.00,OVC,,0.00,WeatherDisplay:10.37,2013-06-10 21:28:00,
2013-06-10 16:29:00,78.0,62.0,29.91,South,180,3.1,7.0,58,0.00,OVC,,0.00,WeatherDisplay:10.37,2013-06-10 21:29:00,
2013-06-10 16:30:00,78.0,62.0,29.91,South,180,3.9,9.2,58,0.00,OVC,,0.00,WeatherDisplay:10.37,2013-06-10 21:30:00,
2013-06-10 16:31:00,78.0,61.5,29.91,ESE,112,3.7,10.0,57,0.00,OVC,,0.00,WeatherDisplay:10.37,2013-06-10 21:31:00,
2013-06-10 16:32:00,78.0,63.0,29.90,ESE,112,5.7,10.4,60,0.00,OVC,,0.00,WeatherDisplay:10.37,2013-06-10 21:32:00,
2013-06-10 16:34:00,78.0,62.5,29.90,East,90,4.4,10.0,59,0.00,OVC,,0.00,WeatherDisplay:10.37,2013-06-10 21:34:00,
2013-06-10 16:35:00,78.0,62.5,29.90,South,180,7.0,10.4,59,0.00,OVC,,0.00,WeatherDisplay:10.37,2013-06-10 21:35:00,
2013-06-10 16:36:00,78.0,63.0,29.90,SE,135,5.0,8.1,60,0.00,OVC,,0.00,WeatherDisplay:10.37,2013-06-10 21:36:00,
2013-06-10 16:38:00,78.0,63.0,29.90,ESE,112,6.8,11.0,60,0.00,OVC,,0.00,WeatherDisplay:10.37,2013-06-10 21:38:00,
2013-06-10 16:39:00,78.0,62.5,29.90,SSE,157,4.5,11.5,59,0.00,OVC,,0.00,WeatherDisplay:10.37,2013-06-10 21:39:00,
2013-06-10 16:40:00,78.0,63.0,29.90,ENE,67,1.3,6.9,60,0.00,OVC,,0.00,WeatherDisplay:10.37,2013-06-10 21:40:00,
2013-06-10 16:42:00,78.0,62.0,29.90,South,180,3.0,9.2,58,0.00,OVC,,0.00,WeatherDisplay:10.37,2013-06-10 21:42:00,
2013-06-10 16:44:00,78.0,62.0,29.90,SE,135,6.4,10.4,58,0.00,OVC,,0.00,WeatherDisplay:10.37,2013-06-10 21:44:00,
2013-06-10 16:45:00,78.0,61.0,29.90,East,90,3.1,8.1,56,0.00,OVC,,0.00,WeatherDisplay:10.37,2013-06-10 21:45:00,
2013-06-10 16:48:00,78.0,61.5,29.90,NE,45,5.2,11.5,57,0.00,OVC,,0.00,WeatherDisplay:10.37,2013-06-10 21:48:00,
2013-06-10 16:49:00,78.0,62.0,29.90,ESE,112,3.4,6.9,58,0.00,OVC,,0.00,WeatherDisplay:10.37,2013-06-10 21:49:00,
2013-06-10 16:50:00,78.0,61.0,29.90,ESE,112,7.4,10.4,56,0.00,OVC,,0.00,WeatherDisplay:10.37,2013-06-10 21:50:00,
2013-06-10 16:53:00,77.0,61.1,29.89,ESE,112,6.6,10.0,58,0.00,OVC,,0.00,WeatherDisplay:10.37,2013-06-10 21:53:00,
2013-06-10 16:54:00,77.0,60.6,29.89,ESE,112,8.0,11.5,57,0.00,OVC,,0.00,WeatherDisplay:10.37,2013-06-10 21:54:00,
2013-06-10 16:55:00,77.0,60.6,29.89,SE,135,6.5,10.4,57,0.00,OVC,,0.00,WeatherDisplay:10.37,2013-06-10 21:55:00,
2013-06-10 16:57:00,77.0,61.6,29.89,SSE,157,5.2,9.2,59,0.00,OVC,,0.00,WeatherDisplay:10.37,2013-06-10 21:57:00,
2013-06-10 16:58:00,77.0,63.0,29.89,SSE,157,2.3,5.8,62,0.00,OVC,,0.00,WeatherDisplay:10.37,2013-06-10 21:58:00,
2013-06-10 16:59:00,77.0,62.5,29.89,ESE,112,4.1,6.9,61,0.00,OVC,,0.00,WeatherDisplay:10.37,2013-06-10 21:59:00,
2013-06-10 17:00:00,77.0,62.0,29.89,South,180,4.3,8.0,60,0.00,OVC,,0.00,WeatherDisplay:10.37,2013-06-10 22:00:00,
2013-06-10 17:02:00,77.0,61.1,29.89,ESE,112,6.3,11.5,58,0.00,OVC,,0.00,WeatherDisplay:10.37,2013-06-10 22:02:00,
2013-06-10 17:04:00,77.0,62.0,29.90,East,90,4.8,9.2,60,0.00,OVC,,0.00,WeatherDisplay:10.37,2013-06-10 22:04:00,
2013-06-10 17:05:00,77.0,61.1,29.90,ENE,67,5.2,10.4,58,0.00,OVC,,0.00,WeatherDisplay:10.37,2013-06-10 22:05:00,
2013-06-10 17:07:00,77.0,61.1,29.90,East,90,7.6,9.2,58,0.00,OVC,,0.00,WeatherDisplay:10.37,2013-06-10 22:07:00,
2013-06-10 17:08:00,77.0,62.0,29.90,East,90,6.3,10.4,60,0.00,OVC,,0.00,WeatherDisplay:10.37,2013-06-10 22:08:00,
2013-06-10 17:09:00,77.0,61.1,29.90,East,90,7.0,10.4,58,0.00,OVC,,0.00,WeatherDisplay:10.37,2013-06-10 22:09:00,
2013-06-10 17:10:00,77.0,62.0,29.90,SE,135,3.8,10.4,60,0.00,OVC,,0.00,WeatherDisplay:10.37,2013-06-10 22:10:00,
2013-06-10 17:12:00,77.0,63.0,29.89,ESE,112,5.1,11.5,62,0.00,OVC,,0.00,WeatherDisplay:10.37,2013-06-10 22:12:00,
2013-06-10 17:14:00,77.0,63.4,29.89,ESE,112,3.1,7.0,63,0.00,OVC,,0.00,WeatherDisplay:10.37,2013-06-10 22:14:00,
2013-06-10 17:15:00,78.0,61.0,29.89,ESE,112,5.5,8.1,56,0.00,OVC,,0.00,WeatherDisplay:10.37,2013-06-10 22:15:00,
2013-06-10 17:17:00,78.0,61.0,29.89,South,180,4.8,10.4,56,0.00,OVC,,0.00,WeatherDisplay:10.37,2013-06-10 22:17:00,
2013-06-10 17:19:00,78.0,61.5,29.89,East,90,3.4,8.1,57,0.00,OVC,,0.00,WeatherDisplay:10.37,2013-06-10 22:19:00,
2013-06-10 17:20:00,78.0,61.0,29.89,East,90,3.8,6.9,56,0.00,OVC,,0.00,WeatherDisplay:10.37,2013-06-10 22:20:00,
2013-06-10 17:23:00,78.0,61.0,29.89,ESE,112,3.5,5.8,56,0.00,OVC,,0.00,WeatherDisplay:10.37,2013-06-10 22:23:00,
2013-06-10 17:24:00,78.0,62.5,29.89,SE,135,6.0,8.1,59,0.00,OVC,,0.00,WeatherDisplay:10.37,2013-06-10 22:24:00,
2013-06-10 17:25:00,78.0,62.5,29.89,ENE,67,4.7,7.0,59,0.00,OVC,,0.00,WeatherDisplay:10.37,2013-06-10 22:25:00,
2013-06-10 17:26:00,78.0,63.0,29.89,SE,135,4.9,7.0,60,0.00,OVC,,0.00,WeatherDisplay:10.37,2013-06-10 22:26:00,
2013-06-10 17:28:00,77.0,63.4,29.89,SSE,157,5.7,8.1,63,0.00,OVC,,0.00,WeatherDisplay:10.37,2013-06-10 22:28:00,
2013-06-10 17:29:00,77.0,63.4,29.89,ESE,112,6.1,8.1,63,0.00,OVC,,0.00,WeatherDisplay:10.37,2013-06-10 22:29:00,
2013-06-10 17:30:00,77.0,63.4,29.89,ESE,112,6.1,10.4,63,0.00,OVC,,0.00,WeatherDisplay:10.37,2013-06-10 22:30:00,
2013-06-10 17:31:00,77.0,63.4,29.89,SE,135,5.3,8.1,63,0.00,OVC,,0.00,WeatherDisplay:10.37,2013-06-10 22:31:00,
2013-06-10 17:35:00,77.0,63.4,29.88,East,90,6.5,9.0,63,0.00,OVC,,0.00,WeatherDisplay:10.37,2013-06-10 22:35:00,
2013-06-10 17:36:00,77.0,63.9,29.88,SE,135,7.0,10.4,64,0.00,OVC,,0.00,WeatherDisplay:10.37,2013-06-10 22:36:00,
2013-06-10 17:40:00,77.0,63.9,29.88,East,90,6.3,13.8,64,0.00,OVC,,0.00,WeatherDisplay:10.37,2013-06-10 22:40:00,
2013-06-10 17:41:00,77.0,63.9,29.88,SE,135,5.9,8.1,64,0.00,OVC,,0.00,WeatherDisplay:10.37,2013-06-10 22:41:00,
2013-06-10 17:45:00,78.0,64.8,29.88,SSE,157,3.3,6.9,64,0.00,OVC,,0.00,WeatherDisplay:10.37,2013-06-10 22:45:00,
2013-06-10 17:46:00,78.0,63.9,29.88,East,90,5.6,9.2,62,0.00,OVC,,0.00,WeatherDisplay:10.37,2013-06-10 22:46:00,
2013-06-10 17:47:00,78.0,63.9,29.88,East,90,6.1,10.4,62,0.00,OVC,,0.00,WeatherDisplay:10.37,2013-06-10 22:47:00,
2013-06-10 17:50:00,78.0,63.9,29.88,ESE,112,5.3,11.0,62,0.00,OVC,,0.00,WeatherDisplay:10.37,2013-06-10 22:50:00,
2013-06-10 17:51:00,77.0,63.9,29.88,East,90,6.9,11.5,64,0.00,OVC,,0.00,WeatherDisplay:10.37,2013-06-10 22:51:00,
2013-06-10 17:52:00,77.0,63.0,29.88,ESE,112,7.8,13.8,62,0.00,OVC,,0.00,WeatherDisplay:10.37,2013-06-10 22:52:00,
2013-06-10 17:55:00,77.0,63.9,29.88,ESE,112,5.1,10.4,64,0.00,OVC,,0.00,WeatherDisplay:10.37,2013-06-10 22:55:00,
2013-06-10 17:57:00,77.0,63.0,29.88,East,90,6.0,9.2,62,0.00,OVC,,0.00,WeatherDisplay:10.37,2013-06-10 22:57:00,
2013-06-10 17:58:00,77.0,63.0,29.88,ESE,112,7.1,9.2,62,0.00,OVC,,0.00,WeatherDisplay:10.37,2013-06-10 22:58:00,
2013-06-10 18:00:00,77.0,62.0,29.88,ESE,112,9.1,11.5,60,0.00,OVC,,0.00,WeatherDisplay:10.37,2013-06-10 23:00:00,
2013-06-10 18:01:00,77.0,63.4,29.88,SE,135,9.6,11.5,63,0.00,OVC,,0.00,WeatherDisplay:10.37,2013-06-10 23:01:00,
2013-06-10 18:02:00,77.0,62.5,29.86,ESE,112,9.9,12.0,61,0.00,OVC,,0.00,WeatherDisplay:10.37,2013-06-10 23:02:00,
2013-06-10 18:03:00,77.0,62.5,29.86,East,90,8.4,12.7,61,0.00,OVC,,0.00,WeatherDisplay:10.37,2013-06-10 23:03:00,
2013-06-10 18:05:00,77.0,63.9,29.86,ESE,112,7.8,9.2,64,0.00,OVC,,0.00,WeatherDisplay:10.37,2013-06-10 23:05:00,
2013-06-10 18:06:00,77.0,63.9,29.86,ESE,112,8.0,11.5,64,0.00,OVC,,0.00,WeatherDisplay:10.37,2013-06-10 23:06:00,
2013-06-10 18:07:00,77.0,63.0,29.86,ESE,112,8.1,10.4,62,0.00,OVC,,0.00,WeatherDisplay:10.37,2013-06-10 23:07:00,
2013-06-10 18:08:00,77.0,64.3,29.86,ESE,112,6.1,12.7,65,0.00,OVC,,0.00,WeatherDisplay:10.37,2013-06-10 23:08:00,
2013-06-10 18:11:00,77.0,62.5,29.86,East,90,7.5,11.5,61,0.00,OVC,,0.00,WeatherDisplay:10.37,2013-06-10 23:11:00,
2013-06-10 18:12:00,77.0,62.0,29.86,SSE,157,9.0,10.4,60,0.00,OVC,,0.00,WeatherDisplay:10.37,2013-06-10 23:12:00,
2013-06-10 18:13:00,77.0,61.1,29.86,ESE,112,6.3,17.3,58,0.00,OVC,,0.00,WeatherDisplay:10.37,2013-06-10 23:13:00,
2013-06-10 18:14:00,77.0,61.1,29.86,East,90,6.6,13.8,58,0.00,OVC,,0.00,WeatherDisplay:10.37,2013-06-10 23:14:00,
2013-06-10 18:16:00,77.0,61.6,29.86,ESE,112,7.0,13.8,59,0.00,OVC,,0.00,WeatherDisplay:10.37,2013-06-10 23:16:00,
2013-06-10 18:17:00,77.0,61.6,29.86,East,90,6.6,10.4,59,0.00,OVC,,0.00,WeatherDisplay:10.37,2013-06-10 23:17:00,
2013-06-10 18:18:00,77.0,61.6,29.86,ESE,112,7.5,10.4,59,0.00,OVC,,0.00,WeatherDisplay:10.37,2013-06-10 23:18:00,
2013-06-10 18:19:00,77.0,62.0,29.86,ESE,112,6.3,10.4,60,0.00,OVC,,0.00,WeatherDisplay:10.37,2013-06-10 23:19:00,
2013-06-10 18:21:00,77.0,62.0,29.86,SSE,157,5.9,12.7,60,0.00,OVC,,0.00,WeatherDisplay:10.37,2013-06-10 23:21:00,
2013-06-10 18:22:00,77.0,63.0,29.86,ESE,112,6.5,10.4,62,0.00,OVC,,0.00,WeatherDisplay:10.37,2013-06-10 23:22:00,
2013-06-10 18:23:00,77.0,63.0,29.86,South,180,6.3,10.4,62,0.00,OVC,,0.00,WeatherDisplay:10.37,2013-06-10 23:23:00,
2013-06-10 18:24:00,77.0,61.6,29.86,ESE,112,7.1,13.8,59,0.00,OVC,,0.00,WeatherDisplay:10.37,2013-06-10 23:24:00,
2013-06-10 18:26:00,77.0,62.5,29.86,ENE,67,5.8,10.4,61,0.00,OVC,,0.00,WeatherDisplay:10.37,2013-06-10 23:26:00,
2013-06-10 18:27:00,77.0,62.0,29.86,ESE,112,7.2,11.5,60,0.00,OVC,,0.00,WeatherDisplay:10.37,2013-06-10 23:27:00,
2013-06-10 18:28:00,77.0,62.0,29.86,SE,135,8.5,10.4,60,0.00,OVC,,0.00,WeatherDisplay:10.37,2013-06-10 23:28:00,
2013-06-10 18:29:00,77.0,62.0,29.86,East,90,6.3,12.7,60,0.00,OVC,,0.00,WeatherDisplay:10.37,2013-06-10 23:29:00,
2013-06-10 18:32:00,77.0,62.0,29.86,ENE,67,6.0,10.4,60,0.00,OVC,,0.00,WeatherDisplay:10.37,2013-06-10 23:32:00,
2013-06-10 18:34:00,77.0,62.0,29.86,ESE,112,5.9,10.4,60,0.00,OVC,,0.00,WeatherDisplay:10.37,2013-06-10 23:34:00,
2013-06-10 18:37:00,77.0,62.0,29.86,ENE,67,5.7,10.0,60,0.00,OVC,,0.00,WeatherDisplay:10.37,2013-06-10 23:37:00,
2013-06-10 18:39:00,77.0,61.6,29.86,ESE,112,8.2,15.0,59,0.00,OVC,,0.00,WeatherDisplay:10.37,2013-06-10 23:39:00,
2013-06-10 18:42:00,77.0,62.0,29.86,ENE,67,6.1,8.1,60,0.00,OVC,,0.00,WeatherDisplay:10.37,2013-06-10 23:42:00,
2013-06-10 18:43:00,77.0,62.0,29.86,ENE,67,6.2,9.2,60,0.00,OVC,,0.00,WeatherDisplay:10.37,2013-06-10 23:43:00,
2013-06-10 18:44:00,77.0,62.0,29.86,ESE,112,5.6,10.4,60,0.00,OVC,,0.00,WeatherDisplay:10.37,2013-06-10 23:44:00,
2013-06-10 18:45:00,77.0,62.0,29.86,ESE,112,5.0,8.1,60,0.00,OVC,,0.00,WeatherDisplay:10.37,2013-06-10 23:45:00,
2013-06-10 18:48:00,77.0,61.1,29.86,South,180,6.6,11.5,58,0.00,OVC,,0.00,WeatherDisplay:10.37,2013-06-10 23:48:00,
2013-06-10 18:49:00,77.0,61.1,29.86,South,180,4.2,7.0,58,0.00,OVC,,0.00,WeatherDisplay:10.37,2013-06-10 23:49:00,
2013-06-10 18:50:00,77.0,61.1,29.86,SSE,157,0.1,8.1,58,0.00,OVC,,0.00,WeatherDisplay:10.37,2013-06-10 23:50:00,
2013-06-10 18:53:00,78.0,62.0,29.87,SE,135,0.4,2.3,58,0.00,OVC,,0.00,WeatherDisplay:10.37,2013-06-10 23:53:00,
2013-06-10 18:54:00,78.0,62.0,29.87,ESE,112,4.3,5.0,58,0.00,OVC,,0.00,WeatherDisplay:10.37,2013-06-10 23:54:00,
2013-06-10 18:55:00,78.0,62.0,29.87,ESE,112,5.3,8.1,58,0.00,OVC,,0.00,WeatherDisplay:10.37,2013-06-10 23:55:00,
2013-06-10 18:56:00,78.0,62.0,29.87,East,90,4.6,8.1,58,0.00,OVC,,0.00,WeatherDisplay:10.37,2013-06-10 23:56:00,
2013-06-10 18:58:00,78.0,60.5,29.87,SSE,157,7.0,10.4,55,0.00,OVC,,0.00,WeatherDisplay:10.37,2013-06-10 23:58:00,
2013-06-10 19:00:00,77.0,60.1,29.87,South,180,5.2,9.2,56,0.00,OVC,,0.00,WeatherDisplay:10.37,2013-06-11 00:00:00,
2013-06-10 19:01:00,77.0,61.1,29.87,ESE,112,4.1,8.1,58,0.00,OVC,,0.00,WeatherDisplay:10.37,2013-06-11 00:01:00,
2013-06-10 19:03:00,78.0,62.0,29.87,SSE,157,0.0,3.5,58,0.00,OVC,,0.00,WeatherDisplay:10.37,2013-06-11 00:03:00,
2013-06-10 19:04:00,78.0,62.5,29.87,East,90,0.6,4.0,59,0.00,OVC,,0.00,WeatherDisplay:10.37,2013-06-11 00:04:00,
2013-06-10 19:05:00,78.0,62.0,29.87,SSE,157,4.0,5.8,58,0.00,OVC,,0.00,WeatherDisplay:10.37,2013-06-11 00:05:00,
2013-06-10 19:06:00,78.0,61.5,29.87,ESE,112,3.8,6.9,57,0.00,OVC,,0.00,WeatherDisplay:10.37,2013-06-11 00:06:00,
2013-06-10 19:09:00,78.0,62.0,29.87,ESE,112,0.2,2.3,58,0.00,OVC,,0.00,WeatherDisplay:10.37,2013-06-11 00:09:00,
2013-06-10 19:10:00,78.0,62.0,29.87,ESE,112,0.6,3.0,58,0.00,OVC,,0.00,WeatherDisplay:10.37,2013-06-11 00:10:00,
2013-06-10 19:11:00,78.0,62.0,29.87,West,270,1.9,3.5,58,0.00,OVC,,0.00,WeatherDisplay:10.37,2013-06-11 00:11:00,
2013-06-10 19:12:00,78.0,62.0,29.87,NE,45,1.7,4.6,58,0.00,OVC,,0.00,WeatherDisplay:10.37,2013-06-11 00:12:00,
2013-06-10 19:14:00,78.0,61.5,29.88,SSE,157,1.2,3.5,57,0.00,OVC,,0.00,WeatherDisplay:10.37,2013-06-11 00:14:00,
2013-06-10 19:15:00,79.0,62.5,29.88,SSE,157,0.0,0.0,57,0.00,OVC,,0.00,WeatherDisplay:10.37,2013-06-11 00:15:00,
2013-06-10 19:17:00,79.0,62.0,29.88,South,180,4.3,8.1,56,0.00,OVC,,0.00,WeatherDisplay:10.37,2013-06-11 00:17:00,
2013-06-10 19:19:00,79.0,62.5,29.88,SE,135,2.9,4.6,57,0.00,OVC,,0.00,WeatherDisplay:10.37,2013-06-11 00:19:00,
2013-06-10 19:20:00,79.0,61.5,29.88,SSE,157,2.3,5.8,55,0.00,OVC,,0.00,WeatherDisplay:10.37,2013-06-11 00:20:00,
2013-06-10 19:22:00,79.0,61.5,29.88,ESE,112,3.6,5.8,55,0.00,OVC,,0.00,WeatherDisplay:10.37,2013-06-11 00:22:00,
2013-06-10 19:23:00,79.0,60.9,29.88,SE,135,5.4,8.1,54,0.00,OVC,,0.00,WeatherDisplay:10.37,2013-06-11 00:23:00,
2013-06-10 19:24:00,78.0,60.5,29.88,ESE,112,4.3,8.1,55,0.00,OVC,,0.00,WeatherDisplay:10.37,2013-06-11 00:24:00,
2013-06-10 19:26:00,78.0,60.5,29.88,South,180,2.1,4.6,55,0.00,OVC,,0.00,WeatherDisplay:10.37,2013-06-11 00:26:00,
2013-06-10 19:27:00,78.0,61.0,29.88,NNE,22,2.0,3.5,56,0.00,OVC,,0.00,WeatherDisplay:10.37,2013-06-11 00:27:00,
2013-06-10 19:29:00,78.0,61.0,29.88,ENE,67,0.9,4.0,56,0.00,OVC,,0.00,WeatherDisplay:10.37,2013-06-11 00:29:00,
2013-06-10 19:31:00,78.0,61.0,29.88,SW,225,1.5,4.6,56,0.00,OVC,,0.00,WeatherDisplay:10.37,2013-06-11 00:31:00,
2013-06-10 19:32:00,79.0,62.0,29.88,SSW,202,0.0,0.0,56,0.00,OVC,,0.00,WeatherDisplay:10.37,2013-06-11 00:32:00,
2013-06-10 19:34:00,78.0,61.0,29.88,ESE,112,1.8,4.6,56,0.00,OVC,,0.00,WeatherDisplay:10.37,2013-06-11 00:34:00,
2013-06-10 19:36:00,78.0,61.5,29.88,ESE,112,0.2,1.2,57,0.00,OVC,,0.00,WeatherDisplay:10.37,2013-06-11 00:36:00,
2013-06-10 19:38:00,79.0,62.5,29.88,ESE,112,0.0,0.0,57,0.00,OVC,,0.00,WeatherDisplay:10.37,2013-06-11 00:38:00,
2013-06-10 19:39:00,79.0,62.0,29.88,ESE,112,0.0,2.3,56,0.00,OVC,,0.00,WeatherDisplay:10.37,2013-06-11 00:39:00,
2013-06-10 19:40:00,79.0,62.5,29.88,ESE,112,0.0,0.0,57,0.00,OVC,,0.00,WeatherDisplay:10.37,2013-06-11 00:40:00,
2013-06-10 19:41:00,79.0,62.5,29.88,ESE,112,0.1,1.0,57,0.00,OVC,,0.00,WeatherDisplay:10.37,2013-06-11 00:41:00,
2013-06-10 19:43:00,79.0,61.5,29.89,South,180,2.2,3.5,55,0.00,OVC,,0.00,WeatherDisplay:10.37,2013-06-11 00:43:00,
2013-06-10 19:44:00,79.0,61.5,29.89,South,180,0.7,2.3,55,0.00,OVC,,0.00,WeatherDisplay:10.37,2013-06-11 00:44:00,
2013-06-10 19:45:00,79.0,61.5,29.89,South,180,1.0,2.3,55,0.00,OVC,,0.00,WeatherDisplay:10.37,2013-06-11 00:45:00,
2013-06-10 19:47:00,79.0,62.0,29.89,SSE,157,5.8,6.9,56,0.00,OVC,,0.00,WeatherDisplay:10.37,2013-06-11 00:47:00,
2013-06-10 19:48:00,79.0,62.5,29.89,South,180,1.1,6.9,57,0.00,OVC,,0.00,WeatherDisplay:10.37,2013-06-11 00:48:00,
2013-06-10 19:50:00,79.0,62.5,29.89,ESE,112,0.4,3.5,57,0.00,OVC,,0.00,WeatherDisplay:10.37,2013-06-11 00:50:00,
2013-06-10 19:51:00,78.0,62.0,29.89,South,180,1.0,3.5,58,0.00,OVC,,0.00,WeatherDisplay:10.37,2013-06-11 00:51:00,
2013-06-10 19:52:00,78.0,62.0,29.89,SSE,157,0.9,3.5,58,0.00,OVC,,0.00,WeatherDisplay:10.37,2013-06-11 00:52:00,
2013-06-10 19:54:00,78.0,62.0,29.89,SSE,157,1.8,3.5,58,0.00,OVC,,0.00,WeatherDisplay:10.37,2013-06-11 00:54:00,
2013-06-10 19:55:00,78.0,62.5,29.89,SSE,157,0.0,1.2,59,0.00,OVC,,0.00,WeatherDisplay:10.37,2013-06-11 00:55:00,
2013-06-10 19:56:00,78.0,62.5,29.89,SSE,157,0.0,0.0,59,0.00,OVC,,0.00,WeatherDisplay:10.37,2013-06-11 00:56:00,
2013-06-10 19:57:00,78.0,62.5,29.89,SSE,157,0.4,1.2,59,0.00,OVC,,0.00,WeatherDisplay:10.37,2013-06-11 00:57:00,
2013-06-10 19:59:00,78.0,62.5,29.89,ESE,112,3.1,3.5,59,0.00,OVC,,0.00,WeatherDisplay:10.37,2013-06-11 00:59:00,
2013-06-10 20:00:00,78.0,62.5,29.89,ESE,112,0.3,3.5,59,0.00,OVC,,0.00,WeatherDisplay:10.37,2013-06-11 01:00:00,
2013-06-10 20:02:00,77.0,62.0,29.89,ESE,112,1.7,3.5,60,0.00,OVC,,0.00,WeatherDisplay:10.37,2013-06-11 01:02:00,
2013-06-10 20:04:00,77.0,62.5,29.89,ESE,112,0.0,0.0,61,0.00,OVC,,0.00,WeatherDisplay:10.37,2013-06-11 01:04:00,
2013-06-10 20:05:00,77.0,63.0,29.89,ESE,112,0.0,0.0,62,0.00,OVC,,0.00,WeatherDisplay:10.37,2013-06-11 01:05:00,
2013-06-10 20:07:00,77.0,63.0,29.89,East,90,0.0,1.2,62,0.00,OVC,,0.00,WeatherDisplay:10.37,2013-06-11 01:07:00,
2013-06-10 20:08:00,77.0,63.0,29.89,East,90,0.0,1.2,62,0.00,OVC,,0.00,WeatherDisplay:10.37,2013-06-11 01:08:00,
2013-06-10 20:09:00,78.0,63.5,29.89,ESE,112,0.0,1.2,61,0.00,OVC,,0.00,WeatherDisplay:10.37,2013-06-11 01:09:00,
2013-06-10 20:10:00,78.0,63.5,29.89,ESE,112,0.0,0.0,61,0.00,OVC,,0.00,WeatherDisplay:10.37,2013-06-11 01:10:00,
2013-06-10 20:13:00,78.0,63.0,29.91,ESE,112,0.0,0.0,60,0.00,OVC,,0.00,WeatherDisplay:10.37,2013-06-11 01:13:00,
2013-06-10 20:14:00,77.0,62.5,29.91,ESE,112,0.0,0.0,61,0.00,OVC,,0.00,WeatherDisplay:10.37,2013-06-11 01:14:00,
2013-06-10 20:15:00,77.0,63.0,29.91,ESE,112,0.1,0.0,62,0.00,OVC,,0.00,WeatherDisplay:10.37,2013-06-11 01:15:00,
2013-06-10 20:16:00,77.0,63.0,29.91,ESE,112,0.1,1.2,62,0.00,OVC,,0.00,WeatherDisplay:10.37,2013-06-11 01:16:00,
2013-06-10 20:18:00,77.0,63.0,29.91,ESE,112,0.0,0.0,62,0.00,OVC,,0.00,WeatherDisplay:10.37,2013-06-11 01:18:00,
2013-06-10 20:20:00,77.0,63.9,29.91,ESE,112,0.3,1.2,64,0.00,OVC,,0.00,WeatherDisplay:10.37,2013-06-11 01:20:00,
2013-06-10 20:21:00,77.0,64.3,29.91,ESE,112,0.0,0.0,65,0.00,OVC,,0.00,WeatherDisplay:10.37,2013-06-11 01:21:00,
2013-06-10 20:23:00,77.0,63.9,29.91,ESE,112,0.0,0.0,64,0.00,OVC,,0.00,WeatherDisplay:10.37,2013-06-11 01:23:00,
2013-06-10 20:25:00,76.0,62.9,29.91,ESE,112,0.0,0.0,64,0.00,OVC,,0.00,WeatherDisplay:10.37,2013-06-11 01:25:00,
2013-06-10 20:26:00,76.0,62.9,29.91,ESE,112,0.0,0.0,64,0.00,OVC,,0.00,WeatherDisplay:10.37,2013-06-11 01:26:00,
2013-06-10 20:28:00,76.0,62.9,29.91,ESE,112,0.0,0.0,64,0.00,OVC,,0.00,WeatherDisplay:10.37,2013-06-11 01:28:00,
2013-06-10 20:30:00,76.0,63.4,29.91,ESE,112,0.0,0.0,65,0.00,OVC,,0.00,WeatherDisplay:10.37,2013-06-11 01:30:00,
2013-06-10 20:32:00,76.0,63.4,29.91,ESE,112,0.0,0.0,65,0.00,OVC,,0.00,WeatherDisplay:10.37,2013-06-11 01:32:00,
2013-06-10 20:33:00,76.0,63.4,29.92,ESE,112,0.0,0.0,65,0.00,OVC,,0.00,WeatherDisplay:10.37,2013-06-11 01:33:00,
2013-06-10 20:37:00,75.0,62.4,29.92,ESE,112,0.6,1.2,65,0.00,OVC,,0.00,WeatherDisplay:10.37,2013-06-11 01:37:00,
2013-06-10 20:38:00,75.0,62.4,29.92,ESE,112,0.3,2.3,65,0.00,OVC,,0.00,WeatherDisplay:10.37,2013-06-11 01:38:00,
2013-06-10 20:39:00,75.0,62.4,29.92,ESE,112,0.5,2.3,65,0.00,OVC,,0.00,WeatherDisplay:10.37,2013-06-11 01:39:00,
2013-06-10 20:42:00,74.0,61.5,29.92,ESE,112,0.3,2.3,65,0.00,OVC,,0.00,WeatherDisplay:10.37,2013-06-11 01:42:00,
2013-06-10 20:43:00,74.0,61.5,29.93,ESE,112,0.1,1.2,65,0.00,OVC,,0.00,WeatherDisplay:10.37,2013-06-11 01:43:00,
2013-06-10 20:45:00,74.0,61.5,29.93,ESE,112,0.0,1.2,65,0.00,OVC,,0.00,WeatherDisplay:10.37,2013-06-11 01:45:00,
2013-06-10 20:47:00,73.0,61.0,29.93,ESE,112,0.0,0.0,66,0.00,OVC,,0.00,WeatherDisplay:10.37,2013-06-11 01:47:00,
2013-06-10 20:48:00,73.0,61.0,29.93,ESE,112,0.0,0.0,66,0.00,OVC,,0.00,WeatherDisplay:10.37,2013-06-11 01:48:00,
2013-06-10 20:50:00,73.0,61.0,29.93,ESE,112,0.0,0.0,66,0.00,OVC,,0.00,WeatherDisplay:10.37,2013-06-11 01:50:00,
2013-06-10 20:53:00,73.0,61.4,29.94,ESE,112,0.0,0.0,67,0.00,OVC,,0.00,WeatherDisplay:10.37,2013-06-11 01:53:00,
2013-06-10 20:54:00,72.0,60.9,29.94,ESE,112,0.0,0.0,68,0.00,OVC,,0.00,WeatherDisplay:10.37,2013-06-11 01:54:00,
2013-06-10 20:55:00,72.0,60.9,29.94,ESE,112,0.0,0.0,68,0.00,OVC,,0.00,WeatherDisplay:10.37,2013-06-11 01:55:00,
2013-06-10 20:58:00,71.0,60.7,29.94,ESE,112,0.0,0.0,70,0.00,OVC,,0.00,WeatherDisplay:10.37,2013-06-11 01:58:00,
2013-06-10 20:59:00,71.0,60.7,29.94,ESE,112,0.0,0.0,70,0.00,OVC,,0.00,WeatherDisplay:10.37,2013-06-11 01:59:00,
2013-06-10 21:01:00,71.0,60.7,29.94,ESE,112,0.0,0.0,70,0.00,OVC,,0.00,WeatherDisplay:10.37,2013-06-11 02:01:00,
2013-06-10 21:03:00,71.0,60.7,29.95,ESE,112,0.0,0.0,70,0.00,OVC,,0.00,WeatherDisplay:10.37,2013-06-11 02:03:00,
2013-06-10 21:04:00,70.0,60.2,29.95,ESE,112,0.0,0.0,71,0.00,OVC,,0.00,WeatherDisplay:10.37,2013-06-11 02:04:00,
2013-06-10 21:07:00,70.0,60.6,29.95,ESE,112,0.0,0.0,72,0.00,OVC,,0.00,WeatherDisplay:10.37,2013-06-11 02:07:00,
2013-06-10 21:09:00,70.0,60.9,29.95,ESE,112,0.0,0.0,73,0.00,OVC,,0.00,WeatherDisplay:10.37,2013-06-11 02:09:00,
2013-06-10 21:12:00,69.0,60.4,29.95,ESE,112,0.0,0.0,74,0.00,OVC,,0.00,WeatherDisplay:10.37,2013-06-11 02:12:00,
2013-06-10 21:14:00,69.0,61.1,29.96,ESE,112,0.0,0.0,76,0.00,OVC,,0.00,WeatherDisplay:10.37,2013-06-11 02:14:00,
2013-06-10 21:17:00,68.0,60.9,29.96,ESE,112,0.0,0.0,78,0.00,OVC,,0.00,WeatherDisplay:10.37,2013-06-11 02:17:00,
2013-06-10 21:19:00,68.0,60.9,29.96,ESE,112,0.0,0.0,78,0.00,OVC,,0.00,WeatherDisplay:10.37,2013-06-11 02:19:00,
2013-06-10 21:22:00,68.0,60.9,29.97,ESE,112,0.0,0.0,78,0.00,OVC,,0.00,WeatherDisplay:10.37,2013-06-11 02:22:00,
2013-06-10 21:24:00,67.0,59.9,29.97,SSE,157,0.0,0.0,78,0.00,OVC,,0.00,WeatherDisplay:10.37,2013-06-11 02:24:00,
2013-06-10 21:25:00,67.0,60.3,29.97,ESE,112,0.0,0.0,79,0.00,OVC,,0.00,WeatherDisplay:10.37,2013-06-11 02:25:00,
2013-06-10 21:28:00,67.0,60.6,29.97,ESE,112,0.0,0.0,80,0.00,OVC,,0.00,WeatherDisplay:10.37,2013-06-11 02:28:00,
2013-06-10 21:29:00,67.0,61.3,29.97,ESE,112,0.0,0.0,82,0.00,OVC,,0.00,WeatherDisplay:10.37,2013-06-11 02:29:00,
2013-06-10 21:30:00,67.0,62.0,29.97,ESE,112,0.0,0.0,84,0.00,OVC,,0.00,WeatherDisplay:10.37,2013-06-11 02:30:00,
2013-06-10 21:34:00,66.0,61.4,29.98,ESE,112,0.0,0.0,85,0.00,OVC,,0.00,WeatherDisplay:10.37,2013-06-11 02:34:00,
2013-06-10 21:35:00,66.0,61.4,29.98,ESE,112,0.0,0.0,85,0.00,OVC,,0.00,WeatherDisplay:10.37,2013-06-11 02:35:00,
2013-06-10 21:39:00,66.0,61.7,29.98,ESE,112,0.0,0.0,86,0.00,OVC,,0.00,WeatherDisplay:10.37,2013-06-11 02:39:00,
2013-06-10 21:40:00,66.0,61.7,29.98,ESE,112,0.0,0.0,86,0.00,OVC,,0.00,WeatherDisplay:10.37,2013-06-11 02:40:00,
2013-06-10 21:44:00,65.0,61.0,29.99,ESE,112,0.3,1.2,87,0.00,OVC,,0.00,WeatherDisplay:10.37,2013-06-11 02:44:00,
2013-06-10 21:45:00,65.0,61.0,29.99,ESE,112,0.1,1.2,87,0.00,OVC,,0.00,WeatherDisplay:10.37,2013-06-11 02:45:00,
2013-06-10 21:49:00,66.0,64.5,29.99,SSE,157,1.7,4.0,95,0.00,OVC,,0.00,WeatherDisplay:10.37,2013-06-11 02:49:00,
2013-06-10 21:50:00,66.0,64.5,29.99,SSE,157,3.8,4.0,95,0.00,OVC,,0.00,WeatherDisplay:10.37,2013-06-11 02:50:00,
2013-06-10 21:55:00,66.0,64.8,29.98,SSE,157,3.1,4.0,96,0.00,OVC,,0.00,WeatherDisplay:10.37,2013-06-11 02:55:00,
2013-06-10 21:56:00,66.0,64.8,29.98,SSE,157,3.6,4.0,96,0.00,OVC,,0.00,WeatherDisplay:10.37,2013-06-11 02:56:00,
2013-06-10 22:00:00,65.0,63.8,29.98,SSE,157,0.1,1.2,96,0.00,OVC,,0.00,WeatherDisplay:10.37,2013-06-11 03:00:00,
2013-06-10 22:01:00,65.0,63.8,29.98,SSE,157,0.0,0.0,96,0.00,OVC,,0.00,WeatherDisplay:10.37,2013-06-11 03:01:00,
2013-06-10 22:05:00,65.0,63.8,29.99,SSE,157,0.3,1.2,96,0.00,OVC,,0.00,WeatherDisplay:10.37,2013-06-11 03:05:00,
2013-06-10 22:06:00,65.0,63.8,29.99,SSE,157,0.0,1.2,96,0.00,OVC,,0.00,WeatherDisplay:10.37,2013-06-11 03:06:00,
2013-06-10 22:10:00,65.0,63.8,29.99,SSE,157,0.0,0.0,96,0.00,OVC,,0.00,WeatherDisplay:10.37,2013-06-11 03:10:00,
2013-06-10 22:11:00,65.0,63.8,29.99,SSE,157,0.0,0.0,96,0.00,OVC,,0.00,WeatherDisplay:10.37,2013-06-11 03:11:00,
2013-06-10 22:12:00,65.0,63.8,29.99,SSE,157,0.0,0.0,96,0.00,OVC,,0.00,WeatherDisplay:10.37,2013-06-11 03:12:00,
2013-06-10 22:16:00,64.0,62.8,30.00,SSE,157,0.0,0.0,96,0.00,OVC,,0.00,WeatherDisplay:10.37,2013-06-11 03:16:00,
2013-06-10 22:17:00,64.0,63.1,30.00,SSE,157,0.0,0.0,97,0.00,OVC,,0.00,WeatherDisplay:10.37,2013-06-11 03:17:00,
2013-06-10 22:21:00,64.0,63.4,30.00,SSE,157,0.1,1.2,98,0.00,OVC,,0.00,WeatherDisplay:10.37,2013-06-11 03:21:00,
2013-06-10 22:22:00,64.0,63.4,30.00,SSE,157,0.3,1.2,98,0.00,OVC,,0.00,WeatherDisplay:10.37,2013-06-11 03:22:00,
2013-06-10 22:26:00,64.0,63.4,30.01,SSE,157,0.0,0.0,98,0.00,OVC,,0.00,WeatherDisplay:10.37,2013-06-11 03:26:00,
2013-06-10 22:27:00,64.0,63.4,30.01,SSE,157,0.0,1.2,98,0.00,OVC,,0.00,WeatherDisplay:10.37,2013-06-11 03:27:00,
2013-06-10 22:32:00,64.0,63.4,30.01,SSE,157,0.0,0.0,98,0.00,OVC,,0.00,WeatherDisplay:10.37,2013-06-11 03:32:00,
2013-06-10 22:33:00,64.0,63.4,30.01,SSE,157,0.0,0.0,98,0.00,OVC,,0.00,WeatherDisplay:10.37,2013-06-11 03:33:00,
2013-06-10 22:37:00,64.0,63.4,30.01,SSE,157,0.0,0.0,98,0.00,OVC,,0.00,WeatherDisplay:10.37,2013-06-11 03:37:00,
2013-06-10 22:38:00,64.0,63.4,30.01,SSE,157,0.0,0.0,98,0.00,OVC,,0.00,WeatherDisplay:10.37,2013-06-11 03:38:00,
2013-06-10 22:42:00,64.0,63.7,30.01,SSE,157,0.0,0.0,99,0.00,OVC,,0.00,WeatherDisplay:10.37,2013-06-11 03:42:00,
2013-06-10 22:43:00,64.0,63.7,30.01,SSE,157,0.0,0.0,99,0.00,OVC,,0.00,WeatherDisplay:10.37,2013-06-11 03:43:00,
2013-06-10 22:48:00,64.0,64.0,30.01,SSE,157,0.0,0.0,100,0.00,OVC,,0.00,WeatherDisplay:10.37,2013-06-11 03:48:00,
2013-06-10 22:49:00,64.0,64.0,30.01,SSE,157,0.0,0.0,100,0.00,OVC,,0.00,WeatherDisplay:10.37,2013-06-11 03:49:00,
2013-06-10 22:53:00,64.0,64.0,30.01,SSE,157,0.0,0.0,100,0.00,OVC,,0.00,WeatherDisplay:10.37,2013-06-11 03:53:00,
2013-06-10 22:54:00,64.0,64.0,30.01,SSE,157,0.0,0.0,100,0.00,OVC,,0.00,WeatherDisplay:10.37,2013-06-11 03:54:00,
2013-06-10 22:55:00,64.0,64.0,30.01,SSE,157,0.0,0.0,100,0.00,OVC,,0.00,WeatherDisplay:10.37,2013-06-11 03:55:00,
2013-06-10 22:58:00,64.0,64.0,30.01,SSE,157,0.0,0.0,100,0.00,OVC,,0.00,WeatherDisplay:10.37,2013-06-11 03:58:00,
2013-06-10 22:59:00,64.0,64.0,30.01,SSE,157,0.0,0.0,100,0.00,OVC,,0.00,WeatherDisplay:10.37,2013-06-11 03:59:00,
2013-06-10 23:00:00,64.0,64.0,30.01,SSE,157,0.0,0.0,100,0.00,OVC,,0.00,WeatherDisplay:10.37,2013-06-11 04:00:00,
2013-06-10 23:01:00,64.0,64.0,30.01,SSE,157,0.0,0.0,100,0.00,OVC,,0.00,WeatherDisplay:10.37,2013-06-11 04:01:00,
2013-06-10 23:06:00,64.0,64.0,30.01,SSE,157,0.0,0.0,100,0.00,OVC,,0.00,WeatherDisplay:10.37,2013-06-11 04:06:00,
2013-06-10 23:07:00,64.0,64.0,30.01,SSE,157,0.0,1.2,100,0.00,OVC,,0.00,WeatherDisplay:10.37,2013-06-11 04:07:00,
2013-06-10 23:11:00,64.0,64.0,30.01,SSE,157,0.0,0.0,100,0.00,OVC,,0.00,WeatherDisplay:10.37,2013-06-11 04:11:00,
2013-06-10 23:12:00,64.0,64.0,30.01,SSE,157,0.0,0.0,100,0.00,OVC,,0.00,WeatherDisplay:10.37,2013-06-11 04:12:00,
2013-06-10 23:13:00,65.0,65.0,30.01,SSE,157,0.0,0.0,100,0.00,OVC,,0.00,WeatherDisplay:10.37,2013-06-11 04:13:00,
2013-06-10 23:17:00,65.0,65.0,30.01,SSE,157,0.0,0.0,100,0.00,OVC,,0.00,WeatherDisplay:10.37,2013-06-11 04:17:00,
2013-06-10 23:18:00,65.0,65.0,30.01,SSE,157,0.0,0.0,100,0.00,OVC,,0.00,WeatherDisplay:10.37,2013-06-11 04:18:00,
2013-06-10 23:22:00,65.0,65.0,30.01,SSE,157,0.0,0.0,100,0.00,OVC,,0.00,WeatherDisplay:10.37,2013-06-11 04:22:00,
2013-06-10 23:23:00,65.0,65.0,30.01,SSE,157,0.0,0.0,100,0.00,OVC,,0.00,WeatherDisplay:10.37,2013-06-11 04:23:00,
2013-06-10 23:27:00,65.0,65.0,30.01,SSE,157,0.0,0.0,100,0.00,OVC,,0.00,WeatherDisplay:10.37,2013-06-11 04:27:00,
2013-06-10 23:28:00,64.0,64.0,30.01,SSE,157,0.0,0.0,100,0.00,OVC,,0.00,WeatherDisplay:10.37,2013-06-11 04:28:00,
2013-06-10 23:32:00,64.0,64.0,30.01,SSE,157,0.0,0.0,100,0.00,OVC,,0.00,WeatherDisplay:10.37,2013-06-11 04:32:00,
2013-06-10 23:33:00,64.0,64.0,30.01,SSE,157,0.0,0.0,100,0.00,OVC,,0.00,WeatherDisplay:10.37,2013-06-11 04:33:00,
2013-06-10 23:34:00,64.0,64.0,30.01,SSE,157,0.0,0.0,100,0.00,OVC,,0.00,WeatherDisplay:10.37,2013-06-11 04:34:00,
2013-06-10 23:37:00,64.0,64.0,30.01,SSE,157,0.0,0.0,100,0.00,OVC,,0.00,WeatherDisplay:10.37,2013-06-11 04:37:00,
2013-06-10 23:38:00,64.0,64.0,30.01,SSE,157,0.0,0.0,100,0.00,OVC,,0.00,WeatherDisplay:10.37,2013-06-11 04:38:00,
2013-06-10 23:39:00,64.0,64.0,30.01,SSE,157,0.0,0.0,100,0.00,OVC,,0.00,WeatherDisplay:10.37,2013-06-11 04:39:00,
2013-06-10 23:43:00,64.0,64.0,30.01,SSE,157,0.0,0.0,100,0.00,OVC,,0.00,WeatherDisplay:10.37,2013-06-11 04:43:00,
2013-06-10 23:44:00,64.0,64.0,30.01,SSE,157,0.0,0.0,100,0.00,OVC,,0.00,WeatherDisplay:10.37,2013-06-11 04:44:00,
2013-06-10 23:48:00,64.0,64.0,30.01,South,180,0.0,1.2,100,0.00,OVC,,0.00,WeatherDisplay:10.37,2013-06-11 04:48:00,
2013-06-10 23:49:00,64.0,64.0,30.01,South,180,0.0,1.2,100,0.00,OVC,,0.00,WeatherDisplay:10.37,2013-06-11 04:49:00,
2013-06-10 23:53:00,64.0,64.0,30.01,South,180,0.0,0.0,100,0.00,OVC,,0.00,WeatherDisplay:10.37,2013-06-11 04:53:00,
2013-06-10 23:54:00,64.0,64.0,30.01,South,180,0.0,0.0,100,0.00,OVC,,0.00,WeatherDisplay:10.37,2013-06-11 04:54:00,
2013-06-10 23:58:00,64.0,64.0,30.01,South,180,0.0,0.0,100,0.00,OVC,,0.00,WeatherDisplay:10.37,2013-06-11 04:58:00,
2013-06-10 23:59:00,64.0,64.0,30.01,South,180,0.0,0.0,100,0.00,OVC,,0.00,WeatherDisplay:10.37,2013-06-11 04:59:00,